<?xml version="1.0" encoding="UTF-8" standalone="no" ?>
<gpx xmlns="http://www.topografix.com/GPX/1/1" xmlns:xsi="http://www.w3.org/2001/XMLSchema-instance" xsi:schemaLocation="http://www.topografix.com/GPX/1/1 http://www.topografix.com/GPX/1/1/gpx.xsd" version="1.1" creator="VisuGPX - https://www.visugpx.com">
  <metadata>
    <name>Merlas shr 18 mai 2025</name>
    <desc><![CDATA[grp_trc:]]></desc>
  </metadata>
  <trk>
    <name><![CDATA[shr merlas 18 mai 21.5 km ]]></name>
    <cmt><![CDATA[16:03:48]]></cmt>
    <desc><![CDATA[comment ...]]></desc>
    <trkseg>
      <trkpt lat="45.42319" lon="5.63988">
        <ele>858</ele>
        <time>2025-04-12T07:39:27Z</time>
      </trkpt>
      <trkpt lat="45.42319" lon="5.63988">
        <ele>858</ele>
        <time>2025-04-12T07:39:27Z</time>
      </trkpt>
      <trkpt lat="45.42324" lon="5.6398">
        <ele>860</ele>
        <time>2025-04-12T07:40:24Z</time>
      </trkpt>
      <trkpt lat="45.42329" lon="5.63973">
        <ele>861</ele>
        <time>2025-04-12T07:40:36Z</time>
      </trkpt>
      <trkpt lat="45.42336" lon="5.63939">
        <ele>861</ele>
        <time>2025-04-12T07:40:54Z</time>
      </trkpt>
      <trkpt lat="45.42329" lon="5.63907">
        <ele>842</ele>
        <time>2025-04-12T07:41:17Z</time>
      </trkpt>
      <trkpt lat="45.42329" lon="5.63897">
        <ele>844</ele>
        <time>2025-04-12T07:41:22Z</time>
      </trkpt>
      <trkpt lat="45.42333" lon="5.63887">
        <ele>846</ele>
        <time>2025-04-12T07:41:29Z</time>
      </trkpt>
      <trkpt lat="45.42338" lon="5.63879">
        <ele>850</ele>
        <time>2025-04-12T07:41:36Z</time>
      </trkpt>
      <trkpt lat="45.42344" lon="5.63874">
        <ele>851</ele>
        <time>2025-04-12T07:41:46Z</time>
      </trkpt>
      <trkpt lat="45.42351" lon="5.63872">
        <ele>855</ele>
        <time>2025-04-12T07:41:56Z</time>
      </trkpt>
      <trkpt lat="45.42367" lon="5.63875">
        <ele>854</ele>
        <time>2025-04-12T07:42:20Z</time>
      </trkpt>
      <trkpt lat="45.42375" lon="5.63876">
        <ele>852</ele>
        <time>2025-04-12T07:42:27Z</time>
      </trkpt>
      <trkpt lat="45.42382" lon="5.63879">
        <ele>850</ele>
        <time>2025-04-12T07:42:33Z</time>
      </trkpt>
      <trkpt lat="45.4239" lon="5.6388">
        <ele>850</ele>
        <time>2025-04-12T07:42:40Z</time>
      </trkpt>
      <trkpt lat="45.42403" lon="5.6389">
        <ele>840</ele>
        <time>2025-04-12T07:42:54Z</time>
      </trkpt>
      <trkpt lat="45.42415" lon="5.63903">
        <ele>832</ele>
        <time>2025-04-12T07:43:09Z</time>
      </trkpt>
      <trkpt lat="45.4243" lon="5.63909">
        <ele>828</ele>
        <time>2025-04-12T07:43:29Z</time>
      </trkpt>
      <trkpt lat="45.42438" lon="5.6391">
        <ele>826</ele>
        <time>2025-04-12T07:43:34Z</time>
      </trkpt>
      <trkpt lat="45.42446" lon="5.63906">
        <ele>825</ele>
        <time>2025-04-12T07:43:39Z</time>
      </trkpt>
      <trkpt lat="45.42451" lon="5.63885">
        <ele>824</ele>
        <time>2025-04-12T07:43:49Z</time>
      </trkpt>
      <trkpt lat="45.42447" lon="5.63877">
        <ele>824</ele>
        <time>2025-04-12T07:43:56Z</time>
      </trkpt>
      <trkpt lat="45.4244" lon="5.63872">
        <ele>821</ele>
        <time>2025-04-12T07:44:03Z</time>
      </trkpt>
      <trkpt lat="45.42435" lon="5.63864">
        <ele>821</ele>
        <time>2025-04-12T07:44:09Z</time>
      </trkpt>
      <trkpt lat="45.42429" lon="5.63844">
        <ele>820</ele>
        <time>2025-04-12T07:44:21Z</time>
      </trkpt>
      <trkpt lat="45.42426" lon="5.63832">
        <ele>823</ele>
        <time>2025-04-12T07:44:27Z</time>
      </trkpt>
      <trkpt lat="45.42419" lon="5.63813">
        <ele>821</ele>
        <time>2025-04-12T07:44:44Z</time>
      </trkpt>
      <trkpt lat="45.4242" lon="5.63803">
        <ele>823</ele>
        <time>2025-04-12T07:45:00Z</time>
      </trkpt>
      <trkpt lat="45.42424" lon="5.63792">
        <ele>822</ele>
        <time>2025-04-12T07:45:06Z</time>
      </trkpt>
      <trkpt lat="45.42432" lon="5.63774">
        <ele>822</ele>
        <time>2025-04-12T07:45:18Z</time>
      </trkpt>
      <trkpt lat="45.42435" lon="5.63765">
        <ele>821</ele>
        <time>2025-04-12T07:45:24Z</time>
      </trkpt>
      <trkpt lat="45.42432" lon="5.63743">
        <ele>820</ele>
        <time>2025-04-12T07:45:35Z</time>
      </trkpt>
      <trkpt lat="45.42428" lon="5.63734">
        <ele>819</ele>
        <time>2025-04-12T07:45:41Z</time>
      </trkpt>
      <trkpt lat="45.42422" lon="5.63726">
        <ele>816</ele>
        <time>2025-04-12T07:45:47Z</time>
      </trkpt>
      <trkpt lat="45.4242" lon="5.63715">
        <ele>816</ele>
        <time>2025-04-12T07:45:54Z</time>
      </trkpt>
      <trkpt lat="45.42416" lon="5.63705">
        <ele>814</ele>
        <time>2025-04-12T07:46:04Z</time>
      </trkpt>
      <trkpt lat="45.42414" lon="5.63694">
        <ele>816</ele>
        <time>2025-04-12T07:46:11Z</time>
      </trkpt>
      <trkpt lat="45.42416" lon="5.63683">
        <ele>817</ele>
        <time>2025-04-12T07:46:19Z</time>
      </trkpt>
      <trkpt lat="45.42415" lon="5.6366">
        <ele>816</ele>
        <time>2025-04-12T07:46:30Z</time>
      </trkpt>
      <trkpt lat="45.42412" lon="5.6365">
        <ele>817</ele>
        <time>2025-04-12T07:46:35Z</time>
      </trkpt>
      <trkpt lat="45.42402" lon="5.63631">
        <ele>814</ele>
        <time>2025-04-12T07:46:55Z</time>
      </trkpt>
      <trkpt lat="45.42402" lon="5.6362">
        <ele>814</ele>
        <time>2025-04-12T07:47:02Z</time>
      </trkpt>
      <trkpt lat="45.42406" lon="5.6361">
        <ele>813</ele>
        <time>2025-04-12T07:47:10Z</time>
      </trkpt>
      <trkpt lat="45.42413" lon="5.6358">
        <ele>810</ele>
        <time>2025-04-12T07:47:26Z</time>
      </trkpt>
      <trkpt lat="45.42413" lon="5.63569">
        <ele>809</ele>
        <time>2025-04-12T07:47:34Z</time>
      </trkpt>
      <trkpt lat="45.42424" lon="5.6354">
        <ele>811</ele>
        <time>2025-04-12T07:47:55Z</time>
      </trkpt>
      <trkpt lat="45.42432" lon="5.63536">
        <ele>811</ele>
        <time>2025-04-12T07:48:03Z</time>
      </trkpt>
      <trkpt lat="45.42438" lon="5.63529">
        <ele>809</ele>
        <time>2025-04-12T07:48:10Z</time>
      </trkpt>
      <trkpt lat="45.42445" lon="5.63528">
        <ele>809</ele>
        <time>2025-04-12T07:48:15Z</time>
      </trkpt>
      <trkpt lat="45.42454" lon="5.63521">
        <ele>809</ele>
        <time>2025-04-12T07:48:22Z</time>
      </trkpt>
      <trkpt lat="45.42465" lon="5.63505">
        <ele>807</ele>
        <time>2025-04-12T07:48:32Z</time>
      </trkpt>
      <trkpt lat="45.42496" lon="5.6347">
        <ele>806</ele>
        <time>2025-04-12T07:49:02Z</time>
      </trkpt>
      <trkpt lat="45.42515" lon="5.63419">
        <ele>807</ele>
        <time>2025-04-12T07:49:34Z</time>
      </trkpt>
      <trkpt lat="45.42529" lon="5.63368">
        <ele>806</ele>
        <time>2025-04-12T07:50:06Z</time>
      </trkpt>
      <trkpt lat="45.42538" lon="5.63336">
        <ele>802</ele>
        <time>2025-04-12T07:50:26Z</time>
      </trkpt>
      <trkpt lat="45.42536" lon="5.63326">
        <ele>802</ele>
        <time>2025-04-12T07:50:32Z</time>
      </trkpt>
      <trkpt lat="45.42541" lon="5.63281">
        <ele>801</ele>
        <time>2025-04-12T07:51:04Z</time>
      </trkpt>
      <trkpt lat="45.42537" lon="5.63271">
        <ele>799</ele>
        <time>2025-04-12T07:51:10Z</time>
      </trkpt>
      <trkpt lat="45.42536" lon="5.6326">
        <ele>800</ele>
        <time>2025-04-12T07:51:16Z</time>
      </trkpt>
      <trkpt lat="45.42531" lon="5.6324">
        <ele>802</ele>
        <time>2025-04-12T07:51:28Z</time>
      </trkpt>
      <trkpt lat="45.42524" lon="5.63243">
        <ele>801</ele>
        <time>2025-04-12T07:51:41Z</time>
      </trkpt>
      <trkpt lat="45.42507" lon="5.63249">
        <ele>802</ele>
        <time>2025-04-12T07:52:22Z</time>
      </trkpt>
      <trkpt lat="45.425" lon="5.63252">
        <ele>803</ele>
        <time>2025-04-12T07:52:29Z</time>
      </trkpt>
      <trkpt lat="45.42467" lon="5.63251">
        <ele>801</ele>
        <time>2025-04-12T07:52:50Z</time>
      </trkpt>
      <trkpt lat="45.42461" lon="5.63246">
        <ele>804</ele>
        <time>2025-04-12T07:52:59Z</time>
      </trkpt>
      <trkpt lat="45.4246" lon="5.63235">
        <ele>806</ele>
        <time>2025-04-12T07:53:15Z</time>
      </trkpt>
      <trkpt lat="45.42449" lon="5.63208">
        <ele>805</ele>
        <time>2025-04-12T07:53:40Z</time>
      </trkpt>
      <trkpt lat="45.42442" lon="5.63203">
        <ele>804</ele>
        <time>2025-04-12T07:53:46Z</time>
      </trkpt>
      <trkpt lat="45.42439" lon="5.63194">
        <ele>805</ele>
        <time>2025-04-12T07:53:52Z</time>
      </trkpt>
      <trkpt lat="45.42437" lon="5.63183">
        <ele>807</ele>
        <time>2025-04-12T07:53:59Z</time>
      </trkpt>
      <trkpt lat="45.42436" lon="5.63172">
        <ele>811</ele>
        <time>2025-04-12T07:54:14Z</time>
      </trkpt>
      <trkpt lat="45.42437" lon="5.63149">
        <ele>819</ele>
        <time>2025-04-12T07:54:30Z</time>
      </trkpt>
      <trkpt lat="45.42434" lon="5.63139">
        <ele>814</ele>
        <time>2025-04-12T07:54:39Z</time>
      </trkpt>
      <trkpt lat="45.42432" lon="5.63128">
        <ele>816</ele>
        <time>2025-04-12T07:54:44Z</time>
      </trkpt>
      <trkpt lat="45.42427" lon="5.6312">
        <ele>821</ele>
        <time>2025-04-12T07:54:50Z</time>
      </trkpt>
      <trkpt lat="45.42425" lon="5.6311">
        <ele>823</ele>
        <time>2025-04-12T07:54:56Z</time>
      </trkpt>
      <trkpt lat="45.42421" lon="5.63101">
        <ele>824</ele>
        <time>2025-04-12T07:55:05Z</time>
      </trkpt>
      <trkpt lat="45.42418" lon="5.63091">
        <ele>825</ele>
        <time>2025-04-12T07:55:14Z</time>
      </trkpt>
      <trkpt lat="45.42413" lon="5.63084">
        <ele>828</ele>
        <time>2025-04-12T07:55:18Z</time>
      </trkpt>
      <trkpt lat="45.42409" lon="5.63074">
        <ele>833</ele>
        <time>2025-04-12T07:55:25Z</time>
      </trkpt>
      <trkpt lat="45.42398" lon="5.63058">
        <ele>835</ele>
        <time>2025-04-12T07:55:39Z</time>
      </trkpt>
      <trkpt lat="45.42393" lon="5.6305">
        <ele>837</ele>
        <time>2025-04-12T07:55:48Z</time>
      </trkpt>
      <trkpt lat="45.42387" lon="5.63031">
        <ele>839</ele>
        <time>2025-04-12T07:56:02Z</time>
      </trkpt>
      <trkpt lat="45.42382" lon="5.63023">
        <ele>840</ele>
        <time>2025-04-12T07:56:07Z</time>
      </trkpt>
      <trkpt lat="45.42371" lon="5.63004">
        <ele>843</ele>
        <time>2025-04-12T07:56:22Z</time>
      </trkpt>
      <trkpt lat="45.42364" lon="5.62999">
        <ele>844</ele>
        <time>2025-04-12T07:56:29Z</time>
      </trkpt>
      <trkpt lat="45.42355" lon="5.62999">
        <ele>843</ele>
        <time>2025-04-12T07:56:39Z</time>
      </trkpt>
      <trkpt lat="45.42348" lon="5.62996">
        <ele>843</ele>
        <time>2025-04-12T07:56:46Z</time>
      </trkpt>
      <trkpt lat="45.42343" lon="5.62988">
        <ele>844</ele>
        <time>2025-04-12T07:56:54Z</time>
      </trkpt>
      <trkpt lat="45.42321" lon="5.62976">
        <ele>845</ele>
        <time>2025-04-12T07:57:19Z</time>
      </trkpt>
      <trkpt lat="45.42314" lon="5.62971">
        <ele>847</ele>
        <time>2025-04-12T07:57:26Z</time>
      </trkpt>
      <trkpt lat="45.423" lon="5.62944">
        <ele>850</ele>
        <time>2025-04-12T07:57:45Z</time>
      </trkpt>
      <trkpt lat="45.42295" lon="5.62937">
        <ele>851</ele>
        <time>2025-04-12T07:57:51Z</time>
      </trkpt>
      <trkpt lat="45.42292" lon="5.62927">
        <ele>851</ele>
        <time>2025-04-12T07:57:58Z</time>
      </trkpt>
      <trkpt lat="45.42292" lon="5.62915">
        <ele>855</ele>
        <time>2025-04-12T07:58:03Z</time>
      </trkpt>
      <trkpt lat="45.42289" lon="5.62906">
        <ele>860</ele>
        <time>2025-04-12T07:58:16Z</time>
      </trkpt>
      <trkpt lat="45.42275" lon="5.62853">
        <ele>864</ele>
        <time>2025-04-12T07:58:46Z</time>
      </trkpt>
      <trkpt lat="45.42273" lon="5.62831">
        <ele>864</ele>
        <time>2025-04-12T07:58:59Z</time>
      </trkpt>
      <trkpt lat="45.42271" lon="5.6282">
        <ele>866</ele>
        <time>2025-04-12T07:59:05Z</time>
      </trkpt>
      <trkpt lat="45.42266" lon="5.62811">
        <ele>865</ele>
        <time>2025-04-12T07:59:12Z</time>
      </trkpt>
      <trkpt lat="45.42261" lon="5.62802">
        <ele>862</ele>
        <time>2025-04-12T07:59:20Z</time>
      </trkpt>
      <trkpt lat="45.42256" lon="5.62782">
        <ele>863</ele>
        <time>2025-04-12T07:59:36Z</time>
      </trkpt>
      <trkpt lat="45.42256" lon="5.62771">
        <ele>862</ele>
        <time>2025-04-12T07:59:46Z</time>
      </trkpt>
      <trkpt lat="45.42247" lon="5.62741">
        <ele>861</ele>
        <time>2025-04-12T08:00:03Z</time>
      </trkpt>
      <trkpt lat="45.42243" lon="5.6273">
        <ele>859</ele>
        <time>2025-04-12T08:00:10Z</time>
      </trkpt>
      <trkpt lat="45.42234" lon="5.62697">
        <ele>858</ele>
        <time>2025-04-12T08:00:25Z</time>
      </trkpt>
      <trkpt lat="45.42228" lon="5.62689">
        <ele>860</ele>
        <time>2025-04-12T08:00:31Z</time>
      </trkpt>
      <trkpt lat="45.42221" lon="5.62685">
        <ele>859</ele>
        <time>2025-04-12T08:00:42Z</time>
      </trkpt>
      <trkpt lat="45.42215" lon="5.62679">
        <ele>860</ele>
        <time>2025-04-12T08:00:50Z</time>
      </trkpt>
      <trkpt lat="45.4221" lon="5.6267">
        <ele>859</ele>
        <time>2025-04-12T08:00:57Z</time>
      </trkpt>
      <trkpt lat="45.42196" lon="5.62659">
        <ele>860</ele>
        <time>2025-04-12T08:01:11Z</time>
      </trkpt>
      <trkpt lat="45.42177" lon="5.62639">
        <ele>860</ele>
        <time>2025-04-12T08:01:27Z</time>
      </trkpt>
      <trkpt lat="45.42148" lon="5.62616">
        <ele>861</ele>
        <time>2025-04-12T08:01:48Z</time>
      </trkpt>
      <trkpt lat="45.42139" lon="5.62598">
        <ele>864</ele>
        <time>2025-04-12T08:02:01Z</time>
      </trkpt>
      <trkpt lat="45.42132" lon="5.6259">
        <ele>866</ele>
        <time>2025-04-12T08:02:07Z</time>
      </trkpt>
      <trkpt lat="45.42128" lon="5.6258">
        <ele>866</ele>
        <time>2025-04-12T08:02:13Z</time>
      </trkpt>
      <trkpt lat="45.4212" lon="5.62574">
        <ele>868</ele>
        <time>2025-04-12T08:02:19Z</time>
      </trkpt>
      <trkpt lat="45.42115" lon="5.62566">
        <ele>869</ele>
        <time>2025-04-12T08:02:26Z</time>
      </trkpt>
      <trkpt lat="45.42082" lon="5.62535">
        <ele>867</ele>
        <time>2025-04-12T08:03:00Z</time>
      </trkpt>
      <trkpt lat="45.42049" lon="5.62501">
        <ele>866</ele>
        <time>2025-04-12T08:03:33Z</time>
      </trkpt>
      <trkpt lat="45.42036" lon="5.62489">
        <ele>865</ele>
        <time>2025-04-12T08:03:44Z</time>
      </trkpt>
      <trkpt lat="45.42031" lon="5.62481">
        <ele>867</ele>
        <time>2025-04-12T08:03:50Z</time>
      </trkpt>
      <trkpt lat="45.42012" lon="5.62462">
        <ele>870</ele>
        <time>2025-04-12T08:04:08Z</time>
      </trkpt>
      <trkpt lat="45.42004" lon="5.62458">
        <ele>872</ele>
        <time>2025-04-12T08:04:20Z</time>
      </trkpt>
      <trkpt lat="45.41997" lon="5.62457">
        <ele>871</ele>
        <time>2025-04-12T08:04:27Z</time>
      </trkpt>
      <trkpt lat="45.4199" lon="5.62451">
        <ele>870</ele>
        <time>2025-04-12T08:04:33Z</time>
      </trkpt>
      <trkpt lat="45.41975" lon="5.62453">
        <ele>872</ele>
        <time>2025-04-12T08:04:48Z</time>
      </trkpt>
      <trkpt lat="45.41961" lon="5.62461">
        <ele>871</ele>
        <time>2025-04-12T08:05:02Z</time>
      </trkpt>
      <trkpt lat="45.41955" lon="5.62467">
        <ele>872</ele>
        <time>2025-04-12T08:05:08Z</time>
      </trkpt>
      <trkpt lat="45.41952" lon="5.62477">
        <ele>872</ele>
        <time>2025-04-12T08:05:17Z</time>
      </trkpt>
      <trkpt lat="45.41952" lon="5.62489">
        <ele>872</ele>
        <time>2025-04-12T08:05:25Z</time>
      </trkpt>
      <trkpt lat="45.41955" lon="5.62498">
        <ele>870</ele>
        <time>2025-04-12T08:05:31Z</time>
      </trkpt>
      <trkpt lat="45.41959" lon="5.62508">
        <ele>868</ele>
        <time>2025-04-12T08:05:39Z</time>
      </trkpt>
      <trkpt lat="45.41962" lon="5.62519">
        <ele>867</ele>
        <time>2025-04-12T08:05:45Z</time>
      </trkpt>
      <trkpt lat="45.41966" lon="5.62528">
        <ele>867</ele>
        <time>2025-04-12T08:05:51Z</time>
      </trkpt>
      <trkpt lat="45.41978" lon="5.62584">
        <ele>869</ele>
        <time>2025-04-12T08:06:22Z</time>
      </trkpt>
      <trkpt lat="45.4199" lon="5.62612">
        <ele>870</ele>
        <time>2025-04-12T08:06:40Z</time>
      </trkpt>
      <trkpt lat="45.41994" lon="5.62633">
        <ele>870</ele>
        <time>2025-04-12T08:06:52Z</time>
      </trkpt>
      <trkpt lat="45.41998" lon="5.62643">
        <ele>869</ele>
        <time>2025-04-12T08:06:59Z</time>
      </trkpt>
      <trkpt lat="45.42008" lon="5.62658">
        <ele>872</ele>
        <time>2025-04-12T08:07:10Z</time>
      </trkpt>
      <trkpt lat="45.42033" lon="5.62687">
        <ele>871</ele>
        <time>2025-04-12T08:07:34Z</time>
      </trkpt>
      <trkpt lat="45.42054" lon="5.62747">
        <ele>873</ele>
        <time>2025-04-12T08:08:08Z</time>
      </trkpt>
      <trkpt lat="45.4206" lon="5.62767">
        <ele>874</ele>
        <time>2025-04-12T08:08:18Z</time>
      </trkpt>
      <trkpt lat="45.42069" lon="5.62787">
        <ele>875</ele>
        <time>2025-04-12T08:08:30Z</time>
      </trkpt>
      <trkpt lat="45.42076" lon="5.62792">
        <ele>871</ele>
        <time>2025-04-12T08:08:37Z</time>
      </trkpt>
      <trkpt lat="45.42092" lon="5.62829">
        <ele>871</ele>
        <time>2025-04-12T08:09:01Z</time>
      </trkpt>
      <trkpt lat="45.42094" lon="5.62839">
        <ele>873</ele>
        <time>2025-04-12T08:09:10Z</time>
      </trkpt>
      <trkpt lat="45.42094" lon="5.62851">
        <ele>873</ele>
        <time>2025-04-12T08:09:17Z</time>
      </trkpt>
      <trkpt lat="45.42097" lon="5.6286">
        <ele>872</ele>
        <time>2025-04-12T08:09:22Z</time>
      </trkpt>
      <trkpt lat="45.42099" lon="5.62882">
        <ele>873</ele>
        <time>2025-04-12T08:09:35Z</time>
      </trkpt>
      <trkpt lat="45.42103" lon="5.62893">
        <ele>872</ele>
        <time>2025-04-12T08:09:42Z</time>
      </trkpt>
      <trkpt lat="45.42104" lon="5.62918">
        <ele>871</ele>
        <time>2025-04-12T08:09:54Z</time>
      </trkpt>
      <trkpt lat="45.42109" lon="5.62949">
        <ele>861</ele>
        <time>2025-04-12T08:10:14Z</time>
      </trkpt>
      <trkpt lat="45.42109" lon="5.62961">
        <ele>861</ele>
        <time>2025-04-12T08:10:20Z</time>
      </trkpt>
      <trkpt lat="45.42108" lon="5.62972">
        <ele>861</ele>
        <time>2025-04-12T08:10:27Z</time>
      </trkpt>
      <trkpt lat="45.42101" lon="5.6299">
        <ele>878</ele>
        <time>2025-04-12T08:10:56Z</time>
      </trkpt>
      <trkpt lat="45.421" lon="5.63013">
        <ele>884</ele>
        <time>2025-04-12T08:11:26Z</time>
      </trkpt>
      <trkpt lat="45.421" lon="5.63024">
        <ele>884</ele>
        <time>2025-04-12T08:11:31Z</time>
      </trkpt>
      <trkpt lat="45.42101" lon="5.63034">
        <ele>882</ele>
        <time>2025-04-12T08:11:38Z</time>
      </trkpt>
      <trkpt lat="45.42105" lon="5.63067">
        <ele>882</ele>
        <time>2025-04-12T08:11:58Z</time>
      </trkpt>
      <trkpt lat="45.42107" lon="5.63088">
        <ele>877</ele>
        <time>2025-04-12T08:12:09Z</time>
      </trkpt>
      <trkpt lat="45.42105" lon="5.63099">
        <ele>878</ele>
        <time>2025-04-12T08:12:16Z</time>
      </trkpt>
      <trkpt lat="45.42107" lon="5.63122">
        <ele>879</ele>
        <time>2025-04-12T08:12:27Z</time>
      </trkpt>
      <trkpt lat="45.42117" lon="5.63153">
        <ele>879</ele>
        <time>2025-04-12T08:12:46Z</time>
      </trkpt>
      <trkpt lat="45.42117" lon="5.63164">
        <ele>881</ele>
        <time>2025-04-12T08:12:51Z</time>
      </trkpt>
      <trkpt lat="45.4212" lon="5.63176">
        <ele>883</ele>
        <time>2025-04-12T08:12:57Z</time>
      </trkpt>
      <trkpt lat="45.42134" lon="5.63202">
        <ele>887</ele>
        <time>2025-04-12T08:13:15Z</time>
      </trkpt>
      <trkpt lat="45.42141" lon="5.63207">
        <ele>890</ele>
        <time>2025-04-12T08:13:29Z</time>
      </trkpt>
      <trkpt lat="45.42147" lon="5.63214">
        <ele>893</ele>
        <time>2025-04-12T08:13:35Z</time>
      </trkpt>
      <trkpt lat="45.42158" lon="5.63231">
        <ele>896</ele>
        <time>2025-04-12T08:13:49Z</time>
      </trkpt>
      <trkpt lat="45.42161" lon="5.63241">
        <ele>897</ele>
        <time>2025-04-12T08:13:56Z</time>
      </trkpt>
      <trkpt lat="45.42158" lon="5.63251">
        <ele>899</ele>
        <time>2025-04-12T08:14:03Z</time>
      </trkpt>
      <trkpt lat="45.42151" lon="5.63255">
        <ele>901</ele>
        <time>2025-04-12T08:14:08Z</time>
      </trkpt>
      <trkpt lat="45.42144" lon="5.63261">
        <ele>904</ele>
        <time>2025-04-12T08:14:14Z</time>
      </trkpt>
      <trkpt lat="45.42136" lon="5.63263">
        <ele>906</ele>
        <time>2025-04-12T08:14:21Z</time>
      </trkpt>
      <trkpt lat="45.42128" lon="5.63264">
        <ele>909</ele>
        <time>2025-04-12T08:14:27Z</time>
      </trkpt>
      <trkpt lat="45.42121" lon="5.63268">
        <ele>912</ele>
        <time>2025-04-12T08:14:33Z</time>
      </trkpt>
      <trkpt lat="45.42105" lon="5.6327">
        <ele>913</ele>
        <time>2025-04-12T08:14:46Z</time>
      </trkpt>
      <trkpt lat="45.42091" lon="5.63278">
        <ele>911</ele>
        <time>2025-04-12T08:15:03Z</time>
      </trkpt>
      <trkpt lat="45.42069" lon="5.63298">
        <ele>910</ele>
        <time>2025-04-12T08:15:27Z</time>
      </trkpt>
      <trkpt lat="45.42043" lon="5.6332">
        <ele>909</ele>
        <time>2025-04-12T08:16:03Z</time>
      </trkpt>
      <trkpt lat="45.42037" lon="5.63328">
        <ele>909</ele>
        <time>2025-04-12T08:16:11Z</time>
      </trkpt>
      <trkpt lat="45.42032" lon="5.63336">
        <ele>906</ele>
        <time>2025-04-12T08:16:21Z</time>
      </trkpt>
      <trkpt lat="45.42025" lon="5.6334">
        <ele>904</ele>
        <time>2025-04-12T08:16:27Z</time>
      </trkpt>
      <trkpt lat="45.41999" lon="5.63366">
        <ele>904</ele>
        <time>2025-04-12T08:16:53Z</time>
      </trkpt>
      <trkpt lat="45.41994" lon="5.63374">
        <ele>904</ele>
        <time>2025-04-12T08:17:01Z</time>
      </trkpt>
      <trkpt lat="45.4199" lon="5.63383">
        <ele>901</ele>
        <time>2025-04-12T08:17:11Z</time>
      </trkpt>
      <trkpt lat="45.41982" lon="5.63402">
        <ele>898</ele>
        <time>2025-04-12T08:17:25Z</time>
      </trkpt>
      <trkpt lat="45.41978" lon="5.63412">
        <ele>895</ele>
        <time>2025-04-12T08:17:33Z</time>
      </trkpt>
      <trkpt lat="45.41971" lon="5.6342">
        <ele>893</ele>
        <time>2025-04-12T08:17:39Z</time>
      </trkpt>
      <trkpt lat="45.41969" lon="5.63431">
        <ele>895</ele>
        <time>2025-04-12T08:17:44Z</time>
      </trkpt>
      <trkpt lat="45.41966" lon="5.63441">
        <ele>897</ele>
        <time>2025-04-12T08:17:49Z</time>
      </trkpt>
      <trkpt lat="45.41966" lon="5.63452">
        <ele>897</ele>
        <time>2025-04-12T08:17:56Z</time>
      </trkpt>
      <trkpt lat="45.41969" lon="5.63462">
        <ele>898</ele>
        <time>2025-04-12T08:18:02Z</time>
      </trkpt>
      <trkpt lat="45.41967" lon="5.63483">
        <ele>901</ele>
        <time>2025-04-12T08:18:14Z</time>
      </trkpt>
      <trkpt lat="45.41966" lon="5.63493">
        <ele>904</ele>
        <time>2025-04-12T08:18:19Z</time>
      </trkpt>
      <trkpt lat="45.41955" lon="5.63511">
        <ele>906</ele>
        <time>2025-04-12T08:18:33Z</time>
      </trkpt>
      <trkpt lat="45.41944" lon="5.6355">
        <ele>911</ele>
        <time>2025-04-12T08:18:51Z</time>
      </trkpt>
      <trkpt lat="45.41944" lon="5.63562">
        <ele>911</ele>
        <time>2025-04-12T08:18:57Z</time>
      </trkpt>
      <trkpt lat="45.41944" lon="5.63573">
        <ele>914</ele>
        <time>2025-04-12T08:19:02Z</time>
      </trkpt>
      <trkpt lat="45.41941" lon="5.63594">
        <ele>917</ele>
        <time>2025-04-12T08:19:14Z</time>
      </trkpt>
      <trkpt lat="45.41922" lon="5.63643">
        <ele>922</ele>
        <time>2025-04-12T08:19:44Z</time>
      </trkpt>
      <trkpt lat="45.4192" lon="5.63654">
        <ele>921</ele>
        <time>2025-04-12T08:19:51Z</time>
      </trkpt>
      <trkpt lat="45.41914" lon="5.63699">
        <ele>918</ele>
        <time>2025-04-12T08:20:15Z</time>
      </trkpt>
      <trkpt lat="45.41916" lon="5.63711">
        <ele>917</ele>
        <time>2025-04-12T08:20:19Z</time>
      </trkpt>
      <trkpt lat="45.4191" lon="5.63722">
        <ele>915</ele>
        <time>2025-04-12T08:20:23Z</time>
      </trkpt>
      <trkpt lat="45.41903" lon="5.63747">
        <ele>912</ele>
        <time>2025-04-12T08:20:28Z</time>
      </trkpt>
      <trkpt lat="45.41901" lon="5.63762">
        <ele>908</ele>
        <time>2025-04-12T08:20:31Z</time>
      </trkpt>
      <trkpt lat="45.419" lon="5.63773">
        <ele>905</ele>
        <time>2025-04-12T08:20:33Z</time>
      </trkpt>
      <trkpt lat="45.41899" lon="5.63787">
        <ele>903</ele>
        <time>2025-04-12T08:20:36Z</time>
      </trkpt>
      <trkpt lat="45.41899" lon="5.63798">
        <ele>901</ele>
        <time>2025-04-12T08:20:38Z</time>
      </trkpt>
      <trkpt lat="45.41891" lon="5.63828">
        <ele>897</ele>
        <time>2025-04-12T08:20:43Z</time>
      </trkpt>
      <trkpt lat="45.41888" lon="5.63838">
        <ele>894</ele>
        <time>2025-04-12T08:20:45Z</time>
      </trkpt>
      <trkpt lat="45.41883" lon="5.63877">
        <ele>891</ele>
        <time>2025-04-12T08:20:55Z</time>
      </trkpt>
      <trkpt lat="45.41874" lon="5.63923">
        <ele>894</ele>
        <time>2025-04-12T08:21:09Z</time>
      </trkpt>
      <trkpt lat="45.41867" lon="5.6395">
        <ele>899</ele>
        <time>2025-04-12T08:21:17Z</time>
      </trkpt>
      <trkpt lat="45.41865" lon="5.63961">
        <ele>900</ele>
        <time>2025-04-12T08:21:20Z</time>
      </trkpt>
      <trkpt lat="45.41864" lon="5.63972">
        <ele>903</ele>
        <time>2025-04-12T08:21:23Z</time>
      </trkpt>
      <trkpt lat="45.41861" lon="5.63983">
        <ele>906</ele>
        <time>2025-04-12T08:21:26Z</time>
      </trkpt>
      <trkpt lat="45.41854" lon="5.64018">
        <ele>918</ele>
        <time>2025-04-12T08:21:37Z</time>
      </trkpt>
      <trkpt lat="45.41843" lon="5.64035">
        <ele>929</ele>
        <time>2025-04-12T08:21:45Z</time>
      </trkpt>
      <trkpt lat="45.41823" lon="5.64083">
        <ele>948</ele>
        <time>2025-04-12T08:22:05Z</time>
      </trkpt>
      <trkpt lat="45.41817" lon="5.64091">
        <ele>950</ele>
        <time>2025-04-12T08:22:11Z</time>
      </trkpt>
      <trkpt lat="45.41813" lon="5.64099">
        <ele>952</ele>
        <time>2025-04-12T08:22:17Z</time>
      </trkpt>
      <trkpt lat="45.41808" lon="5.6412">
        <ele>953</ele>
        <time>2025-04-12T08:22:31Z</time>
      </trkpt>
      <trkpt lat="45.41793" lon="5.64161">
        <ele>953</ele>
        <time>2025-04-12T08:22:53Z</time>
      </trkpt>
      <trkpt lat="45.41783" lon="5.64178">
        <ele>955</ele>
        <time>2025-04-12T08:23:03Z</time>
      </trkpt>
      <trkpt lat="45.41777" lon="5.64187">
        <ele>958</ele>
        <time>2025-04-12T08:23:09Z</time>
      </trkpt>
      <trkpt lat="45.41773" lon="5.64196">
        <ele>960</ele>
        <time>2025-04-12T08:23:15Z</time>
      </trkpt>
      <trkpt lat="45.41742" lon="5.64231">
        <ele>963</ele>
        <time>2025-04-12T08:23:43Z</time>
      </trkpt>
      <trkpt lat="45.41734" lon="5.64236">
        <ele>963</ele>
        <time>2025-04-12T08:23:49Z</time>
      </trkpt>
      <trkpt lat="45.41715" lon="5.64254">
        <ele>966</ele>
        <time>2025-04-12T08:24:08Z</time>
      </trkpt>
      <trkpt lat="45.41712" lon="5.64264">
        <ele>966</ele>
        <time>2025-04-12T08:24:13Z</time>
      </trkpt>
      <trkpt lat="45.41706" lon="5.64285">
        <ele>967</ele>
        <time>2025-04-12T08:24:25Z</time>
      </trkpt>
      <trkpt lat="45.41702" lon="5.64295">
        <ele>964</ele>
        <time>2025-04-12T08:24:31Z</time>
      </trkpt>
      <trkpt lat="45.41685" lon="5.64317">
        <ele>962</ele>
        <time>2025-04-12T08:24:44Z</time>
      </trkpt>
      <trkpt lat="45.41671" lon="5.64328">
        <ele>966</ele>
        <time>2025-04-12T08:24:54Z</time>
      </trkpt>
      <trkpt lat="45.41664" lon="5.64332">
        <ele>967</ele>
        <time>2025-04-12T08:24:59Z</time>
      </trkpt>
      <trkpt lat="45.41649" lon="5.64332">
        <ele>969</ele>
        <time>2025-04-12T08:25:10Z</time>
      </trkpt>
      <trkpt lat="45.41642" lon="5.64332">
        <ele>965</ele>
        <time>2025-04-12T08:25:17Z</time>
      </trkpt>
      <trkpt lat="45.41634" lon="5.64329">
        <ele>966</ele>
        <time>2025-04-12T08:25:23Z</time>
      </trkpt>
      <trkpt lat="45.41602" lon="5.6433">
        <ele>968</ele>
        <time>2025-04-12T08:25:45Z</time>
      </trkpt>
      <trkpt lat="45.41627" lon="5.6433">
        <ele>967</ele>
        <time>2025-04-12T08:26:18Z</time>
      </trkpt>
      <trkpt lat="45.41642" lon="5.64334">
        <ele>969</ele>
        <time>2025-04-12T08:26:27Z</time>
      </trkpt>
      <trkpt lat="45.41666" lon="5.64334">
        <ele>969</ele>
        <time>2025-04-12T08:26:42Z</time>
      </trkpt>
      <trkpt lat="45.41688" lon="5.64319">
        <ele>972</ele>
        <time>2025-04-12T08:26:58Z</time>
      </trkpt>
      <trkpt lat="45.41702" lon="5.64293">
        <ele>971</ele>
        <time>2025-04-12T08:27:16Z</time>
      </trkpt>
      <trkpt lat="45.41713" lon="5.64265">
        <ele>970</ele>
        <time>2025-04-12T08:27:31Z</time>
      </trkpt>
      <trkpt lat="45.41724" lon="5.64251">
        <ele>971</ele>
        <time>2025-04-12T08:27:43Z</time>
      </trkpt>
      <trkpt lat="45.41729" lon="5.64242">
        <ele>968</ele>
        <time>2025-04-12T08:27:49Z</time>
      </trkpt>
      <trkpt lat="45.41751" lon="5.64222">
        <ele>968</ele>
        <time>2025-04-12T08:28:04Z</time>
      </trkpt>
      <trkpt lat="45.41766" lon="5.64213">
        <ele>970</ele>
        <time>2025-04-12T08:28:13Z</time>
      </trkpt>
      <trkpt lat="45.41772" lon="5.64207">
        <ele>970</ele>
        <time>2025-04-12T08:28:20Z</time>
      </trkpt>
      <trkpt lat="45.41779" lon="5.642">
        <ele>968</ele>
        <time>2025-04-12T08:28:25Z</time>
      </trkpt>
      <trkpt lat="45.41785" lon="5.64192">
        <ele>966</ele>
        <time>2025-04-12T08:28:31Z</time>
      </trkpt>
      <trkpt lat="45.41795" lon="5.64173">
        <ele>966</ele>
        <time>2025-04-12T08:28:42Z</time>
      </trkpt>
      <trkpt lat="45.41808" lon="5.64144">
        <ele>962</ele>
        <time>2025-04-12T08:28:58Z</time>
      </trkpt>
      <trkpt lat="45.4181" lon="5.64132">
        <ele>961</ele>
        <time>2025-04-12T08:29:04Z</time>
      </trkpt>
      <trkpt lat="45.41813" lon="5.64122">
        <ele>959</ele>
        <time>2025-04-12T08:29:08Z</time>
      </trkpt>
      <trkpt lat="45.41836" lon="5.64062">
        <ele>955</ele>
        <time>2025-04-12T08:29:39Z</time>
      </trkpt>
      <trkpt lat="45.41839" lon="5.64052">
        <ele>954</ele>
        <time>2025-04-12T08:29:44Z</time>
      </trkpt>
      <trkpt lat="45.41845" lon="5.64046">
        <ele>957</ele>
        <time>2025-04-12T08:29:49Z</time>
      </trkpt>
      <trkpt lat="45.41849" lon="5.64057">
        <ele>953</ele>
        <time>2025-04-12T08:29:56Z</time>
      </trkpt>
      <trkpt lat="45.41851" lon="5.64068">
        <ele>950</ele>
        <time>2025-04-12T08:30:04Z</time>
      </trkpt>
      <trkpt lat="45.41854" lon="5.64079">
        <ele>948</ele>
        <time>2025-04-12T08:30:11Z</time>
      </trkpt>
      <trkpt lat="45.41856" lon="5.6409">
        <ele>943</ele>
        <time>2025-04-12T08:30:17Z</time>
      </trkpt>
      <trkpt lat="45.41856" lon="5.64101">
        <ele>938</ele>
        <time>2025-04-12T08:30:24Z</time>
      </trkpt>
      <trkpt lat="45.4185" lon="5.64146">
        <ele>936</ele>
        <time>2025-04-12T08:30:45Z</time>
      </trkpt>
      <trkpt lat="45.41848" lon="5.64157">
        <ele>934</ele>
        <time>2025-04-12T08:30:53Z</time>
      </trkpt>
      <trkpt lat="45.41848" lon="5.64168">
        <ele>930</ele>
        <time>2025-04-12T08:31:03Z</time>
      </trkpt>
      <trkpt lat="45.41845" lon="5.64188">
        <ele>927</ele>
        <time>2025-04-12T08:31:12Z</time>
      </trkpt>
      <trkpt lat="45.41841" lon="5.6421">
        <ele>924</ele>
        <time>2025-04-12T08:31:21Z</time>
      </trkpt>
      <trkpt lat="45.41841" lon="5.64222">
        <ele>923</ele>
        <time>2025-04-12T08:31:26Z</time>
      </trkpt>
      <trkpt lat="45.4184" lon="5.64233">
        <ele>923</ele>
        <time>2025-04-12T08:31:32Z</time>
      </trkpt>
      <trkpt lat="45.41836" lon="5.64242">
        <ele>923</ele>
        <time>2025-04-12T08:31:39Z</time>
      </trkpt>
      <trkpt lat="45.41829" lon="5.64263">
        <ele>921</ele>
        <time>2025-04-12T08:31:49Z</time>
      </trkpt>
      <trkpt lat="45.41822" lon="5.64275">
        <ele>919</ele>
        <time>2025-04-12T08:31:58Z</time>
      </trkpt>
      <trkpt lat="45.41819" lon="5.64285">
        <ele>917</ele>
        <time>2025-04-12T08:32:04Z</time>
      </trkpt>
      <trkpt lat="45.41813" lon="5.64318">
        <ele>913</ele>
        <time>2025-04-12T08:32:19Z</time>
      </trkpt>
      <trkpt lat="45.41805" lon="5.64351">
        <ele>913</ele>
        <time>2025-04-12T08:32:37Z</time>
      </trkpt>
      <trkpt lat="45.41801" lon="5.6436">
        <ele>913</ele>
        <time>2025-04-12T08:32:42Z</time>
      </trkpt>
      <trkpt lat="45.41798" lon="5.64384">
        <ele>915</ele>
        <time>2025-04-12T08:32:52Z</time>
      </trkpt>
      <trkpt lat="45.41792" lon="5.64416">
        <ele>919</ele>
        <time>2025-04-12T08:33:08Z</time>
      </trkpt>
      <trkpt lat="45.41783" lon="5.64435">
        <ele>921</ele>
        <time>2025-04-12T08:33:20Z</time>
      </trkpt>
      <trkpt lat="45.41778" lon="5.6447">
        <ele>919</ele>
        <time>2025-04-12T08:33:42Z</time>
      </trkpt>
      <trkpt lat="45.41775" lon="5.6448">
        <ele>917</ele>
        <time>2025-04-12T08:33:47Z</time>
      </trkpt>
      <trkpt lat="45.41771" lon="5.64501">
        <ele>916</ele>
        <time>2025-04-12T08:33:58Z</time>
      </trkpt>
      <trkpt lat="45.41762" lon="5.64542">
        <ele>903</ele>
        <time>2025-04-12T08:34:24Z</time>
      </trkpt>
      <trkpt lat="45.41765" lon="5.64566">
        <ele>900</ele>
        <time>2025-04-12T08:34:37Z</time>
      </trkpt>
      <trkpt lat="45.41769" lon="5.64576">
        <ele>897</ele>
        <time>2025-04-12T08:34:44Z</time>
      </trkpt>
      <trkpt lat="45.41774" lon="5.64608">
        <ele>894</ele>
        <time>2025-04-12T08:35:07Z</time>
      </trkpt>
      <trkpt lat="45.41783" lon="5.64639">
        <ele>889</ele>
        <time>2025-04-12T08:35:25Z</time>
      </trkpt>
      <trkpt lat="45.41788" lon="5.64673">
        <ele>889</ele>
        <time>2025-04-12T08:35:44Z</time>
      </trkpt>
      <trkpt lat="45.41786" lon="5.64683">
        <ele>888</ele>
        <time>2025-04-12T08:35:50Z</time>
      </trkpt>
      <trkpt lat="45.41786" lon="5.64705">
        <ele>886</ele>
        <time>2025-04-12T08:36:00Z</time>
      </trkpt>
      <trkpt lat="45.41789" lon="5.64726">
        <ele>884</ele>
        <time>2025-04-12T08:36:11Z</time>
      </trkpt>
      <trkpt lat="45.41791" lon="5.64737">
        <ele>882</ele>
        <time>2025-04-12T08:36:17Z</time>
      </trkpt>
      <trkpt lat="45.41796" lon="5.64758">
        <ele>880</ele>
        <time>2025-04-12T08:36:28Z</time>
      </trkpt>
      <trkpt lat="45.41798" lon="5.64792">
        <ele>877</ele>
        <time>2025-04-12T08:36:46Z</time>
      </trkpt>
      <trkpt lat="45.41801" lon="5.64815">
        <ele>876</ele>
        <time>2025-04-12T08:36:58Z</time>
      </trkpt>
      <trkpt lat="45.41805" lon="5.64826">
        <ele>877</ele>
        <time>2025-04-12T08:37:04Z</time>
      </trkpt>
      <trkpt lat="45.41811" lon="5.64858">
        <ele>875</ele>
        <time>2025-04-12T08:37:22Z</time>
      </trkpt>
      <trkpt lat="45.41814" lon="5.6488">
        <ele>871</ele>
        <time>2025-04-12T08:37:34Z</time>
      </trkpt>
      <trkpt lat="45.4181" lon="5.64902">
        <ele>871</ele>
        <time>2025-04-12T08:37:44Z</time>
      </trkpt>
      <trkpt lat="45.41803" lon="5.6492">
        <ele>870</ele>
        <time>2025-04-12T08:37:54Z</time>
      </trkpt>
      <trkpt lat="45.41796" lon="5.64926">
        <ele>868</ele>
        <time>2025-04-12T08:38:00Z</time>
      </trkpt>
      <trkpt lat="45.41782" lon="5.64938">
        <ele>869</ele>
        <time>2025-04-12T08:38:24Z</time>
      </trkpt>
      <trkpt lat="45.41775" lon="5.64943">
        <ele>870</ele>
        <time>2025-04-12T08:38:30Z</time>
      </trkpt>
      <trkpt lat="45.41769" lon="5.64951">
        <ele>870</ele>
        <time>2025-04-12T08:38:36Z</time>
      </trkpt>
      <trkpt lat="45.41818" lon="5.64962">
        <ele>864</ele>
        <time>2025-04-12T08:39:09Z</time>
      </trkpt>
      <trkpt lat="45.41834" lon="5.64962">
        <ele>863</ele>
        <time>2025-04-12T08:39:19Z</time>
      </trkpt>
      <trkpt lat="45.41842" lon="5.64966">
        <ele>861</ele>
        <time>2025-04-12T08:39:25Z</time>
      </trkpt>
      <trkpt lat="45.41848" lon="5.64972">
        <ele>859</ele>
        <time>2025-04-12T08:39:32Z</time>
      </trkpt>
      <trkpt lat="45.41858" lon="5.64989">
        <ele>857</ele>
        <time>2025-04-12T08:39:43Z</time>
      </trkpt>
      <trkpt lat="45.41869" lon="5.65006">
        <ele>854</ele>
        <time>2025-04-12T08:39:53Z</time>
      </trkpt>
      <trkpt lat="45.41876" lon="5.65014">
        <ele>853</ele>
        <time>2025-04-12T08:39:58Z</time>
      </trkpt>
      <trkpt lat="45.4189" lon="5.65042">
        <ele>854</ele>
        <time>2025-04-12T08:40:14Z</time>
      </trkpt>
      <trkpt lat="45.41895" lon="5.65075">
        <ele>853</ele>
        <time>2025-04-12T08:40:31Z</time>
      </trkpt>
      <trkpt lat="45.41903" lon="5.65095">
        <ele>852</ele>
        <time>2025-04-12T08:40:42Z</time>
      </trkpt>
      <trkpt lat="45.41909" lon="5.65104">
        <ele>852</ele>
        <time>2025-04-12T08:40:48Z</time>
      </trkpt>
      <trkpt lat="45.41915" lon="5.65113">
        <ele>854</ele>
        <time>2025-04-12T08:40:53Z</time>
      </trkpt>
      <trkpt lat="45.41921" lon="5.65121">
        <ele>856</ele>
        <time>2025-04-12T08:40:58Z</time>
      </trkpt>
      <trkpt lat="45.41928" lon="5.65127">
        <ele>858</ele>
        <time>2025-04-12T08:41:05Z</time>
      </trkpt>
      <trkpt lat="45.41935" lon="5.65134">
        <ele>860</ele>
        <time>2025-04-12T08:41:11Z</time>
      </trkpt>
      <trkpt lat="45.41949" lon="5.65143">
        <ele>863</ele>
        <time>2025-04-12T08:41:28Z</time>
      </trkpt>
      <trkpt lat="45.41956" lon="5.65145">
        <ele>865</ele>
        <time>2025-04-12T08:41:34Z</time>
      </trkpt>
      <trkpt lat="45.41964" lon="5.65148">
        <ele>867</ele>
        <time>2025-04-12T08:41:39Z</time>
      </trkpt>
      <trkpt lat="45.41972" lon="5.65147">
        <ele>870</ele>
        <time>2025-04-12T08:41:46Z</time>
      </trkpt>
      <trkpt lat="45.41997" lon="5.65152">
        <ele>871</ele>
        <time>2025-04-12T08:42:02Z</time>
      </trkpt>
      <trkpt lat="45.42004" lon="5.65154">
        <ele>873</ele>
        <time>2025-04-12T08:42:07Z</time>
      </trkpt>
      <trkpt lat="45.42013" lon="5.65157">
        <ele>875</ele>
        <time>2025-04-12T08:42:13Z</time>
      </trkpt>
      <trkpt lat="45.4202" lon="5.65161">
        <ele>879</ele>
        <time>2025-04-12T08:42:19Z</time>
      </trkpt>
      <trkpt lat="45.42051" lon="5.65199">
        <ele>879</ele>
        <time>2025-04-12T08:42:49Z</time>
      </trkpt>
      <trkpt lat="45.42055" lon="5.65208">
        <ele>880</ele>
        <time>2025-04-12T08:42:55Z</time>
      </trkpt>
      <trkpt lat="45.42061" lon="5.65216">
        <ele>880</ele>
        <time>2025-04-12T08:43:02Z</time>
      </trkpt>
      <trkpt lat="45.42076" lon="5.65244">
        <ele>883</ele>
        <time>2025-04-12T08:43:18Z</time>
      </trkpt>
      <trkpt lat="45.42083" lon="5.65266">
        <ele>883</ele>
        <time>2025-04-12T08:43:29Z</time>
      </trkpt>
      <trkpt lat="45.42087" lon="5.65277">
        <ele>886</ele>
        <time>2025-04-12T08:43:34Z</time>
      </trkpt>
      <trkpt lat="45.42089" lon="5.65289">
        <ele>888</ele>
        <time>2025-04-12T08:43:39Z</time>
      </trkpt>
      <trkpt lat="45.42092" lon="5.65298">
        <ele>890</ele>
        <time>2025-04-12T08:43:45Z</time>
      </trkpt>
      <trkpt lat="45.42099" lon="5.65317">
        <ele>891</ele>
        <time>2025-04-12T08:43:57Z</time>
      </trkpt>
      <trkpt lat="45.42103" lon="5.65327">
        <ele>893</ele>
        <time>2025-04-12T08:44:04Z</time>
      </trkpt>
      <trkpt lat="45.42115" lon="5.65341">
        <ele>894</ele>
        <time>2025-04-12T08:44:13Z</time>
      </trkpt>
      <trkpt lat="45.42128" lon="5.65352">
        <ele>895</ele>
        <time>2025-04-12T08:44:25Z</time>
      </trkpt>
      <trkpt lat="45.42133" lon="5.65361">
        <ele>894</ele>
        <time>2025-04-12T08:44:30Z</time>
      </trkpt>
      <trkpt lat="45.42148" lon="5.65369">
        <ele>892</ele>
        <time>2025-04-12T08:44:41Z</time>
      </trkpt>
      <trkpt lat="45.42163" lon="5.6538">
        <ele>890</ele>
        <time>2025-04-12T08:44:55Z</time>
      </trkpt>
      <trkpt lat="45.42169" lon="5.65388">
        <ele>894</ele>
        <time>2025-04-12T08:45:02Z</time>
      </trkpt>
      <trkpt lat="45.42172" lon="5.65397">
        <ele>894</ele>
        <time>2025-04-12T08:45:08Z</time>
      </trkpt>
      <trkpt lat="45.42174" lon="5.65424">
        <ele>893</ele>
        <time>2025-04-12T08:45:23Z</time>
      </trkpt>
      <trkpt lat="45.42174" lon="5.65447">
        <ele>892</ele>
        <time>2025-04-12T08:45:38Z</time>
      </trkpt>
      <trkpt lat="45.42171" lon="5.65457">
        <ele>893</ele>
        <time>2025-04-12T08:45:43Z</time>
      </trkpt>
      <trkpt lat="45.42166" lon="5.65468">
        <ele>897</ele>
        <time>2025-04-12T08:45:49Z</time>
      </trkpt>
      <trkpt lat="45.4216" lon="5.65499">
        <ele>901</ele>
        <time>2025-04-12T08:46:07Z</time>
      </trkpt>
      <trkpt lat="45.42161" lon="5.6551">
        <ele>900</ele>
        <time>2025-04-12T08:46:12Z</time>
      </trkpt>
      <trkpt lat="45.42158" lon="5.65534">
        <ele>903</ele>
        <time>2025-04-12T08:46:23Z</time>
      </trkpt>
      <trkpt lat="45.42159" lon="5.65545">
        <ele>904</ele>
        <time>2025-04-12T08:46:28Z</time>
      </trkpt>
      <trkpt lat="45.42162" lon="5.65555">
        <ele>902</ele>
        <time>2025-04-12T08:46:35Z</time>
      </trkpt>
      <trkpt lat="45.42166" lon="5.65565">
        <ele>902</ele>
        <time>2025-04-12T08:46:41Z</time>
      </trkpt>
      <trkpt lat="45.42184" lon="5.65586">
        <ele>890</ele>
        <time>2025-04-12T08:47:03Z</time>
      </trkpt>
      <trkpt lat="45.42188" lon="5.65596">
        <ele>890</ele>
        <time>2025-04-12T08:47:10Z</time>
      </trkpt>
      <trkpt lat="45.42188" lon="5.65607">
        <ele>891</ele>
        <time>2025-04-12T08:47:16Z</time>
      </trkpt>
      <trkpt lat="45.42188" lon="5.65619">
        <ele>893</ele>
        <time>2025-04-12T08:47:24Z</time>
      </trkpt>
      <trkpt lat="45.42183" lon="5.65651">
        <ele>894</ele>
        <time>2025-04-12T08:47:41Z</time>
      </trkpt>
      <trkpt lat="45.42184" lon="5.65662">
        <ele>894</ele>
        <time>2025-04-12T08:47:48Z</time>
      </trkpt>
      <trkpt lat="45.42183" lon="5.65674">
        <ele>894</ele>
        <time>2025-04-12T08:47:55Z</time>
      </trkpt>
      <trkpt lat="45.42186" lon="5.65697">
        <ele>894</ele>
        <time>2025-04-12T08:48:04Z</time>
      </trkpt>
      <trkpt lat="45.42186" lon="5.65736">
        <ele>893</ele>
        <time>2025-04-12T08:48:10Z</time>
      </trkpt>
      <trkpt lat="45.42192" lon="5.65841">
        <ele>893</ele>
        <time>2025-04-12T08:48:22Z</time>
      </trkpt>
      <trkpt lat="45.4221" lon="5.65891">
        <ele>892</ele>
        <time>2025-04-12T08:48:29Z</time>
      </trkpt>
      <trkpt lat="45.42211" lon="5.65908">
        <ele>892</ele>
        <time>2025-04-12T08:48:31Z</time>
      </trkpt>
      <trkpt lat="45.42198" lon="5.65958">
        <ele>896</ele>
        <time>2025-04-12T08:48:54Z</time>
      </trkpt>
      <trkpt lat="45.42201" lon="5.65968">
        <ele>899</ele>
        <time>2025-04-12T08:49:01Z</time>
      </trkpt>
      <trkpt lat="45.42233" lon="5.66002">
        <ele>901</ele>
        <time>2025-04-12T08:49:31Z</time>
      </trkpt>
      <trkpt lat="45.42247" lon="5.66013">
        <ele>902</ele>
        <time>2025-04-12T08:49:49Z</time>
      </trkpt>
      <trkpt lat="45.4228" lon="5.66045">
        <ele>903</ele>
        <time>2025-04-12T08:50:20Z</time>
      </trkpt>
      <trkpt lat="45.42292" lon="5.66059">
        <ele>903</ele>
        <time>2025-04-12T08:50:30Z</time>
      </trkpt>
      <trkpt lat="45.42304" lon="5.66072">
        <ele>902</ele>
        <time>2025-04-12T08:50:39Z</time>
      </trkpt>
      <trkpt lat="45.42324" lon="5.66088">
        <ele>912</ele>
        <time>2025-04-12T08:50:58Z</time>
      </trkpt>
      <trkpt lat="45.42329" lon="5.66097">
        <ele>911</ele>
        <time>2025-04-12T08:51:04Z</time>
      </trkpt>
      <trkpt lat="45.4235" lon="5.66116">
        <ele>911</ele>
        <time>2025-04-12T08:51:18Z</time>
      </trkpt>
      <trkpt lat="45.42372" lon="5.66129">
        <ele>913</ele>
        <time>2025-04-12T08:51:37Z</time>
      </trkpt>
      <trkpt lat="45.42388" lon="5.66135">
        <ele>913</ele>
        <time>2025-04-12T08:51:49Z</time>
      </trkpt>
      <trkpt lat="45.42418" lon="5.66151">
        <ele>911</ele>
        <time>2025-04-12T08:52:13Z</time>
      </trkpt>
      <trkpt lat="45.42432" lon="5.66159">
        <ele>912</ele>
        <time>2025-04-12T08:52:24Z</time>
      </trkpt>
      <trkpt lat="45.42474" lon="5.66195">
        <ele>910</ele>
        <time>2025-04-12T08:52:58Z</time>
      </trkpt>
      <trkpt lat="45.4248" lon="5.66202">
        <ele>912</ele>
        <time>2025-04-12T08:53:03Z</time>
      </trkpt>
      <trkpt lat="45.42486" lon="5.66209">
        <ele>914</ele>
        <time>2025-04-12T08:53:09Z</time>
      </trkpt>
      <trkpt lat="45.42514" lon="5.6626">
        <ele>915</ele>
        <time>2025-04-12T08:53:43Z</time>
      </trkpt>
      <trkpt lat="45.42518" lon="5.6627">
        <ele>915</ele>
        <time>2025-04-12T08:53:51Z</time>
      </trkpt>
      <trkpt lat="45.42525" lon="5.66275">
        <ele>916</ele>
        <time>2025-04-12T08:53:57Z</time>
      </trkpt>
      <trkpt lat="45.42533" lon="5.66279">
        <ele>916</ele>
        <time>2025-04-12T08:54:03Z</time>
      </trkpt>
      <trkpt lat="45.42548" lon="5.66285">
        <ele>916</ele>
        <time>2025-04-12T08:54:17Z</time>
      </trkpt>
      <trkpt lat="45.42562" lon="5.6629">
        <ele>919</ele>
        <time>2025-04-12T08:54:33Z</time>
      </trkpt>
      <trkpt lat="45.4257" lon="5.66296">
        <ele>920</ele>
        <time>2025-04-12T08:54:40Z</time>
      </trkpt>
      <trkpt lat="45.42574" lon="5.66305">
        <ele>922</ele>
        <time>2025-04-12T08:54:46Z</time>
      </trkpt>
      <trkpt lat="45.42569" lon="5.66314">
        <ele>927</ele>
        <time>2025-04-12T08:55:00Z</time>
      </trkpt>
      <trkpt lat="45.42568" lon="5.66325">
        <ele>931</ele>
        <time>2025-04-12T08:55:07Z</time>
      </trkpt>
      <trkpt lat="45.42575" lon="5.66345">
        <ele>933</ele>
        <time>2025-04-12T08:55:22Z</time>
      </trkpt>
      <trkpt lat="45.42582" lon="5.66376">
        <ele>933</ele>
        <time>2025-04-12T08:55:39Z</time>
      </trkpt>
      <trkpt lat="45.42603" lon="5.66421">
        <ele>936</ele>
        <time>2025-04-12T08:56:09Z</time>
      </trkpt>
      <trkpt lat="45.42625" lon="5.66469">
        <ele>938</ele>
        <time>2025-04-12T08:56:40Z</time>
      </trkpt>
      <trkpt lat="45.42631" lon="5.66476">
        <ele>940</ele>
        <time>2025-04-12T08:56:46Z</time>
      </trkpt>
      <trkpt lat="45.42641" lon="5.66493">
        <ele>940</ele>
        <time>2025-04-12T08:56:59Z</time>
      </trkpt>
      <trkpt lat="45.42645" lon="5.66515">
        <ele>943</ele>
        <time>2025-04-12T08:57:13Z</time>
      </trkpt>
      <trkpt lat="45.4265" lon="5.66524">
        <ele>943</ele>
        <time>2025-04-12T08:57:20Z</time>
      </trkpt>
      <trkpt lat="45.42654" lon="5.66534">
        <ele>941</ele>
        <time>2025-04-12T08:57:25Z</time>
      </trkpt>
      <trkpt lat="45.42659" lon="5.66542">
        <ele>942</ele>
        <time>2025-04-12T08:57:30Z</time>
      </trkpt>
      <trkpt lat="45.42664" lon="5.66549">
        <ele>939</ele>
        <time>2025-04-12T08:57:37Z</time>
      </trkpt>
      <trkpt lat="45.42678" lon="5.66576">
        <ele>938</ele>
        <time>2025-04-12T08:57:56Z</time>
      </trkpt>
      <trkpt lat="45.4269" lon="5.66603">
        <ele>933</ele>
        <time>2025-04-12T08:58:15Z</time>
      </trkpt>
      <trkpt lat="45.42693" lon="5.66614">
        <ele>932</ele>
        <time>2025-04-12T08:58:22Z</time>
      </trkpt>
      <trkpt lat="45.42699" lon="5.66621">
        <ele>932</ele>
        <time>2025-04-12T08:58:29Z</time>
      </trkpt>
      <trkpt lat="45.42704" lon="5.66629">
        <ele>930</ele>
        <time>2025-04-12T08:58:37Z</time>
      </trkpt>
      <trkpt lat="45.42706" lon="5.66639">
        <ele>930</ele>
        <time>2025-04-12T08:58:44Z</time>
      </trkpt>
      <trkpt lat="45.42713" lon="5.6666">
        <ele>933</ele>
        <time>2025-04-12T08:58:59Z</time>
      </trkpt>
      <trkpt lat="45.42719" lon="5.66692">
        <ele>936</ele>
        <time>2025-04-12T08:59:18Z</time>
      </trkpt>
      <trkpt lat="45.4272" lon="5.66703">
        <ele>939</ele>
        <time>2025-04-12T08:59:24Z</time>
      </trkpt>
      <trkpt lat="45.42724" lon="5.66713">
        <ele>941</ele>
        <time>2025-04-12T08:59:31Z</time>
      </trkpt>
      <trkpt lat="45.42725" lon="5.66723">
        <ele>942</ele>
        <time>2025-04-12T08:59:39Z</time>
      </trkpt>
      <trkpt lat="45.42733" lon="5.66743">
        <ele>942</ele>
        <time>2025-04-12T08:59:52Z</time>
      </trkpt>
      <trkpt lat="45.42738" lon="5.66765">
        <ele>938</ele>
        <time>2025-04-12T09:00:08Z</time>
      </trkpt>
      <trkpt lat="45.42744" lon="5.66773">
        <ele>939</ele>
        <time>2025-04-12T09:00:13Z</time>
      </trkpt>
      <trkpt lat="45.42746" lon="5.66784">
        <ele>938</ele>
        <time>2025-04-12T09:00:20Z</time>
      </trkpt>
      <trkpt lat="45.42746" lon="5.66795">
        <ele>942</ele>
        <time>2025-04-12T09:00:27Z</time>
      </trkpt>
      <trkpt lat="45.42749" lon="5.66805">
        <ele>941</ele>
        <time>2025-04-12T09:00:35Z</time>
      </trkpt>
      <trkpt lat="45.42754" lon="5.66814">
        <ele>941</ele>
        <time>2025-04-12T09:00:42Z</time>
      </trkpt>
      <trkpt lat="45.42759" lon="5.66824">
        <ele>939</ele>
        <time>2025-04-12T09:00:49Z</time>
      </trkpt>
      <trkpt lat="45.42778" lon="5.66858">
        <ele>939</ele>
        <time>2025-04-12T09:01:10Z</time>
      </trkpt>
      <trkpt lat="45.42789" lon="5.66875">
        <ele>937</ele>
        <time>2025-04-12T09:01:26Z</time>
      </trkpt>
      <trkpt lat="45.42797" lon="5.66893">
        <ele>938</ele>
        <time>2025-04-12T09:01:39Z</time>
      </trkpt>
      <trkpt lat="45.42796" lon="5.66906">
        <ele>938</ele>
        <time>2025-04-12T09:01:51Z</time>
      </trkpt>
      <trkpt lat="45.42792" lon="5.66917">
        <ele>939</ele>
        <time>2025-04-12T09:01:57Z</time>
      </trkpt>
      <trkpt lat="45.42795" lon="5.66926">
        <ele>939</ele>
        <time>2025-04-12T09:02:03Z</time>
      </trkpt>
      <trkpt lat="45.42797" lon="5.66949">
        <ele>941</ele>
        <time>2025-04-12T09:02:17Z</time>
      </trkpt>
      <trkpt lat="45.42795" lon="5.6697">
        <ele>943</ele>
        <time>2025-04-12T09:02:29Z</time>
      </trkpt>
      <trkpt lat="45.42798" lon="5.66993">
        <ele>942</ele>
        <time>2025-04-12T09:02:43Z</time>
      </trkpt>
      <trkpt lat="45.42794" lon="5.67048">
        <ele>941</ele>
        <time>2025-04-12T09:03:20Z</time>
      </trkpt>
      <trkpt lat="45.42792" lon="5.67058">
        <ele>941</ele>
        <time>2025-04-12T09:03:25Z</time>
      </trkpt>
      <trkpt lat="45.42786" lon="5.67064">
        <ele>945</ele>
        <time>2025-04-12T09:03:33Z</time>
      </trkpt>
      <trkpt lat="45.42779" lon="5.67068">
        <ele>945</ele>
        <time>2025-04-12T09:03:41Z</time>
      </trkpt>
      <trkpt lat="45.42774" lon="5.67075">
        <ele>945</ele>
        <time>2025-04-12T09:03:46Z</time>
      </trkpt>
      <trkpt lat="45.42761" lon="5.67088">
        <ele>943</ele>
        <time>2025-04-12T09:03:59Z</time>
      </trkpt>
      <trkpt lat="45.42756" lon="5.67096">
        <ele>942</ele>
        <time>2025-04-12T09:04:05Z</time>
      </trkpt>
      <trkpt lat="45.42751" lon="5.67104">
        <ele>940</ele>
        <time>2025-04-12T09:04:11Z</time>
      </trkpt>
      <trkpt lat="45.42744" lon="5.67108">
        <ele>939</ele>
        <time>2025-04-12T09:04:17Z</time>
      </trkpt>
      <trkpt lat="45.42741" lon="5.67097">
        <ele>940</ele>
        <time>2025-04-12T09:04:30Z</time>
      </trkpt>
      <trkpt lat="45.42741" lon="5.67085">
        <ele>937</ele>
        <time>2025-04-12T09:04:37Z</time>
      </trkpt>
      <trkpt lat="45.42736" lon="5.67076">
        <ele>934</ele>
        <time>2025-04-12T09:04:43Z</time>
      </trkpt>
      <trkpt lat="45.42729" lon="5.67072">
        <ele>931</ele>
        <time>2025-04-12T09:04:49Z</time>
      </trkpt>
      <trkpt lat="45.42722" lon="5.67071">
        <ele>930</ele>
        <time>2025-04-12T09:04:54Z</time>
      </trkpt>
      <trkpt lat="45.42714" lon="5.67072">
        <ele>929</ele>
        <time>2025-04-12T09:04:59Z</time>
      </trkpt>
      <trkpt lat="45.42708" lon="5.67077">
        <ele>929</ele>
        <time>2025-04-12T09:05:05Z</time>
      </trkpt>
      <trkpt lat="45.42703" lon="5.67087">
        <ele>927</ele>
        <time>2025-04-12T09:05:12Z</time>
      </trkpt>
      <trkpt lat="45.42699" lon="5.67096">
        <ele>925</ele>
        <time>2025-04-12T09:05:18Z</time>
      </trkpt>
      <trkpt lat="45.42694" lon="5.67105">
        <ele>922</ele>
        <time>2025-04-12T09:05:26Z</time>
      </trkpt>
      <trkpt lat="45.42689" lon="5.67112">
        <ele>920</ele>
        <time>2025-04-12T09:05:34Z</time>
      </trkpt>
      <trkpt lat="45.42679" lon="5.67128">
        <ele>918</ele>
        <time>2025-04-12T09:05:50Z</time>
      </trkpt>
      <trkpt lat="45.42674" lon="5.67136">
        <ele>916</ele>
        <time>2025-04-12T09:05:56Z</time>
      </trkpt>
      <trkpt lat="45.42669" lon="5.67144">
        <ele>914</ele>
        <time>2025-04-12T09:06:01Z</time>
      </trkpt>
      <trkpt lat="45.4267" lon="5.67156">
        <ele>913</ele>
        <time>2025-04-12T09:06:09Z</time>
      </trkpt>
      <trkpt lat="45.42672" lon="5.67166">
        <ele>912</ele>
        <time>2025-04-12T09:06:15Z</time>
      </trkpt>
      <trkpt lat="45.42673" lon="5.67177">
        <ele>913</ele>
        <time>2025-04-12T09:06:21Z</time>
      </trkpt>
      <trkpt lat="45.4267" lon="5.67188">
        <ele>914</ele>
        <time>2025-04-12T09:06:28Z</time>
      </trkpt>
      <trkpt lat="45.42666" lon="5.67198">
        <ele>915</ele>
        <time>2025-04-12T09:06:33Z</time>
      </trkpt>
      <trkpt lat="45.42663" lon="5.67208">
        <ele>917</ele>
        <time>2025-04-12T09:06:37Z</time>
      </trkpt>
      <trkpt lat="45.42642" lon="5.6724">
        <ele>920</ele>
        <time>2025-04-12T09:07:00Z</time>
      </trkpt>
      <trkpt lat="45.42636" lon="5.67246">
        <ele>920</ele>
        <time>2025-04-12T09:07:35Z</time>
      </trkpt>
      <trkpt lat="45.42624" lon="5.67259">
        <ele>919</ele>
        <time>2025-04-12T09:07:48Z</time>
      </trkpt>
      <trkpt lat="45.4262" lon="5.6727">
        <ele>921</ele>
        <time>2025-04-12T09:07:56Z</time>
      </trkpt>
      <trkpt lat="45.42588" lon="5.67299">
        <ele>922</ele>
        <time>2025-04-12T09:08:30Z</time>
      </trkpt>
      <trkpt lat="45.42577" lon="5.67312">
        <ele>923</ele>
        <time>2025-04-12T09:08:42Z</time>
      </trkpt>
      <trkpt lat="45.42564" lon="5.67328">
        <ele>926</ele>
        <time>2025-04-12T09:08:55Z</time>
      </trkpt>
      <trkpt lat="45.42547" lon="5.67352">
        <ele>928</ele>
        <time>2025-04-12T09:09:12Z</time>
      </trkpt>
      <trkpt lat="45.42541" lon="5.67357">
        <ele>928</ele>
        <time>2025-04-12T09:09:18Z</time>
      </trkpt>
      <trkpt lat="45.42537" lon="5.67368">
        <ele>928</ele>
        <time>2025-04-12T09:09:25Z</time>
      </trkpt>
      <trkpt lat="45.42536" lon="5.67379">
        <ele>928</ele>
        <time>2025-04-12T09:09:31Z</time>
      </trkpt>
      <trkpt lat="45.42539" lon="5.67423">
        <ele>929</ele>
        <time>2025-04-12T09:09:52Z</time>
      </trkpt>
      <trkpt lat="45.42534" lon="5.67477">
        <ele>933</ele>
        <time>2025-04-12T09:10:23Z</time>
      </trkpt>
      <trkpt lat="45.42539" lon="5.6751">
        <ele>934</ele>
        <time>2025-04-12T09:10:42Z</time>
      </trkpt>
      <trkpt lat="45.42556" lon="5.67548">
        <ele>934</ele>
        <time>2025-04-12T09:11:06Z</time>
      </trkpt>
      <trkpt lat="45.42557" lon="5.67558">
        <ele>938</ele>
        <time>2025-04-12T09:11:13Z</time>
      </trkpt>
      <trkpt lat="45.42551" lon="5.67565">
        <ele>940</ele>
        <time>2025-04-12T09:11:20Z</time>
      </trkpt>
      <trkpt lat="45.42547" lon="5.67588">
        <ele>940</ele>
        <time>2025-04-12T09:11:36Z</time>
      </trkpt>
      <trkpt lat="45.42538" lon="5.6762">
        <ele>942</ele>
        <time>2025-04-12T09:11:54Z</time>
      </trkpt>
      <trkpt lat="45.4253" lon="5.67654">
        <ele>947</ele>
        <time>2025-04-12T09:12:28Z</time>
      </trkpt>
      <trkpt lat="45.42519" lon="5.67699">
        <ele>948</ele>
        <time>2025-04-12T09:12:50Z</time>
      </trkpt>
      <trkpt lat="45.42517" lon="5.67711">
        <ele>944</ele>
        <time>2025-04-12T09:12:58Z</time>
      </trkpt>
      <trkpt lat="45.42529" lon="5.67779">
        <ele>940</ele>
        <time>2025-04-12T09:13:29Z</time>
      </trkpt>
      <trkpt lat="45.42536" lon="5.67799">
        <ele>936</ele>
        <time>2025-04-12T09:13:39Z</time>
      </trkpt>
      <trkpt lat="45.4254" lon="5.67807">
        <ele>934</ele>
        <time>2025-04-12T09:13:44Z</time>
      </trkpt>
      <trkpt lat="45.42548" lon="5.67814">
        <ele>930</ele>
        <time>2025-04-12T09:13:50Z</time>
      </trkpt>
      <trkpt lat="45.42559" lon="5.67828">
        <ele>929</ele>
        <time>2025-04-12T09:13:59Z</time>
      </trkpt>
      <trkpt lat="45.42565" lon="5.67848">
        <ele>926</ele>
        <time>2025-04-12T09:14:08Z</time>
      </trkpt>
      <trkpt lat="45.42571" lon="5.67857">
        <ele>926</ele>
        <time>2025-04-12T09:14:13Z</time>
      </trkpt>
      <trkpt lat="45.42593" lon="5.67864">
        <ele>928</ele>
        <time>2025-04-12T09:14:28Z</time>
      </trkpt>
      <trkpt lat="45.42601" lon="5.67868">
        <ele>930</ele>
        <time>2025-04-12T09:14:34Z</time>
      </trkpt>
      <trkpt lat="45.42623" lon="5.67879">
        <ele>932</ele>
        <time>2025-04-12T09:15:01Z</time>
      </trkpt>
      <trkpt lat="45.4266" lon="5.6788">
        <ele>932</ele>
        <time>2025-04-12T09:15:28Z</time>
      </trkpt>
      <trkpt lat="45.42676" lon="5.67877">
        <ele>934</ele>
        <time>2025-04-12T09:15:41Z</time>
      </trkpt>
      <trkpt lat="45.42706" lon="5.67888">
        <ele>931</ele>
        <time>2025-04-12T09:16:02Z</time>
      </trkpt>
      <trkpt lat="45.42737" lon="5.67907">
        <ele>929</ele>
        <time>2025-04-12T09:16:17Z</time>
      </trkpt>
      <trkpt lat="45.42756" lon="5.67908">
        <ele>930</ele>
        <time>2025-04-12T09:16:23Z</time>
      </trkpt>
      <trkpt lat="45.42783" lon="5.67922">
        <ele>932</ele>
        <time>2025-04-12T09:16:32Z</time>
      </trkpt>
      <trkpt lat="45.42823" lon="5.67939">
        <ele>930</ele>
        <time>2025-04-12T09:16:47Z</time>
      </trkpt>
      <trkpt lat="45.42853" lon="5.67964">
        <ele>929</ele>
        <time>2025-04-12T09:17:05Z</time>
      </trkpt>
      <trkpt lat="45.4286" lon="5.6797">
        <ele>932</ele>
        <time>2025-04-12T09:17:09Z</time>
      </trkpt>
      <trkpt lat="45.4287" lon="5.67985">
        <ele>941</ele>
        <time>2025-04-12T09:19:31Z</time>
      </trkpt>
      <trkpt lat="45.42881" lon="5.68002">
        <ele>941</ele>
        <time>2025-04-12T09:19:55Z</time>
      </trkpt>
      <trkpt lat="45.42888" lon="5.68009">
        <ele>938</ele>
        <time>2025-04-12T09:20:02Z</time>
      </trkpt>
      <trkpt lat="45.42892" lon="5.68029">
        <ele>938</ele>
        <time>2025-04-12T09:20:14Z</time>
      </trkpt>
      <trkpt lat="45.42895" lon="5.6804">
        <ele>934</ele>
        <time>2025-04-12T09:20:20Z</time>
      </trkpt>
      <trkpt lat="45.429" lon="5.68048">
        <ele>934</ele>
        <time>2025-04-12T09:20:27Z</time>
      </trkpt>
      <trkpt lat="45.42906" lon="5.68057">
        <ele>932</ele>
        <time>2025-04-12T09:20:33Z</time>
      </trkpt>
      <trkpt lat="45.42909" lon="5.68068">
        <ele>930</ele>
        <time>2025-04-12T09:20:38Z</time>
      </trkpt>
      <trkpt lat="45.4292" lon="5.68083">
        <ele>926</ele>
        <time>2025-04-12T09:20:50Z</time>
      </trkpt>
      <trkpt lat="45.42926" lon="5.68089">
        <ele>926</ele>
        <time>2025-04-12T09:20:55Z</time>
      </trkpt>
      <trkpt lat="45.42942" lon="5.68094">
        <ele>925</ele>
        <time>2025-04-12T09:21:06Z</time>
      </trkpt>
      <trkpt lat="45.42958" lon="5.68091">
        <ele>923</ele>
        <time>2025-04-12T09:21:18Z</time>
      </trkpt>
      <trkpt lat="45.42973" lon="5.68091">
        <ele>921</ele>
        <time>2025-04-12T09:21:27Z</time>
      </trkpt>
      <trkpt lat="45.4298" lon="5.68093">
        <ele>922</ele>
        <time>2025-04-12T09:21:32Z</time>
      </trkpt>
      <trkpt lat="45.4302" lon="5.68089">
        <ele>920</ele>
        <time>2025-04-12T09:22:00Z</time>
      </trkpt>
      <trkpt lat="45.43043" lon="5.68087">
        <ele>915</ele>
        <time>2025-04-12T09:22:18Z</time>
      </trkpt>
      <trkpt lat="45.43058" lon="5.68084">
        <ele>917</ele>
        <time>2025-04-12T09:22:28Z</time>
      </trkpt>
      <trkpt lat="45.43067" lon="5.68087">
        <ele>916</ele>
        <time>2025-04-12T09:22:34Z</time>
      </trkpt>
      <trkpt lat="45.4312" lon="5.68087">
        <ele>920</ele>
        <time>2025-04-12T09:23:07Z</time>
      </trkpt>
      <trkpt lat="45.43136" lon="5.68086">
        <ele>921</ele>
        <time>2025-04-12T09:23:17Z</time>
      </trkpt>
      <trkpt lat="45.43153" lon="5.68081">
        <ele>920</ele>
        <time>2025-04-12T09:23:29Z</time>
      </trkpt>
      <trkpt lat="45.43169" lon="5.68083">
        <ele>919</ele>
        <time>2025-04-12T09:23:39Z</time>
      </trkpt>
      <trkpt lat="45.43191" lon="5.68095">
        <ele>920</ele>
        <time>2025-04-12T09:23:55Z</time>
      </trkpt>
      <trkpt lat="45.43225" lon="5.68108">
        <ele>920</ele>
        <time>2025-04-12T09:24:25Z</time>
      </trkpt>
      <trkpt lat="45.43234" lon="5.68107">
        <ele>919</ele>
        <time>2025-04-12T09:24:30Z</time>
      </trkpt>
      <trkpt lat="45.4325" lon="5.68098">
        <ele>920</ele>
        <time>2025-04-12T09:24:40Z</time>
      </trkpt>
      <trkpt lat="45.43259" lon="5.68097">
        <ele>918</ele>
        <time>2025-04-12T09:24:46Z</time>
      </trkpt>
      <trkpt lat="45.43266" lon="5.68092">
        <ele>916</ele>
        <time>2025-04-12T09:24:53Z</time>
      </trkpt>
      <trkpt lat="45.43283" lon="5.68087">
        <ele>914</ele>
        <time>2025-04-12T09:25:05Z</time>
      </trkpt>
      <trkpt lat="45.43298" lon="5.68087">
        <ele>915</ele>
        <time>2025-04-12T09:25:16Z</time>
      </trkpt>
      <trkpt lat="45.43305" lon="5.68083">
        <ele>914</ele>
        <time>2025-04-12T09:25:22Z</time>
      </trkpt>
      <trkpt lat="45.43307" lon="5.68073">
        <ele>912</ele>
        <time>2025-04-12T09:25:31Z</time>
      </trkpt>
      <trkpt lat="45.43306" lon="5.68062">
        <ele>910</ele>
        <time>2025-04-12T09:25:37Z</time>
      </trkpt>
      <trkpt lat="45.43309" lon="5.68019">
        <ele>907</ele>
        <time>2025-04-12T09:26:01Z</time>
      </trkpt>
      <trkpt lat="45.43307" lon="5.68008">
        <ele>904</ele>
        <time>2025-04-12T09:26:05Z</time>
      </trkpt>
      <trkpt lat="45.43307" lon="5.6795">
        <ele>900</ele>
        <time>2025-04-12T09:26:31Z</time>
      </trkpt>
      <trkpt lat="45.43309" lon="5.67928">
        <ele>901</ele>
        <time>2025-04-12T09:26:41Z</time>
      </trkpt>
      <trkpt lat="45.43311" lon="5.67895">
        <ele>905</ele>
        <time>2025-04-12T09:27:04Z</time>
      </trkpt>
      <trkpt lat="45.43312" lon="5.6786">
        <ele>907</ele>
        <time>2025-04-12T09:27:23Z</time>
      </trkpt>
      <trkpt lat="45.43318" lon="5.67792">
        <ele>910</ele>
        <time>2025-04-12T09:27:54Z</time>
      </trkpt>
      <trkpt lat="45.43325" lon="5.67788">
        <ele>912</ele>
        <time>2025-04-12T09:27:59Z</time>
      </trkpt>
      <trkpt lat="45.4334" lon="5.67784">
        <ele>921</ele>
        <time>2025-04-12T09:28:12Z</time>
      </trkpt>
      <trkpt lat="45.43364" lon="5.6779">
        <ele>915</ele>
        <time>2025-04-12T09:28:33Z</time>
      </trkpt>
      <trkpt lat="45.43406" lon="5.67781">
        <ele>914</ele>
        <time>2025-04-12T09:29:00Z</time>
      </trkpt>
      <trkpt lat="45.43414" lon="5.67783">
        <ele>912</ele>
        <time>2025-04-12T09:29:06Z</time>
      </trkpt>
      <trkpt lat="45.43429" lon="5.67783">
        <ele>912</ele>
        <time>2025-04-12T09:29:18Z</time>
      </trkpt>
      <trkpt lat="45.43443" lon="5.67791">
        <ele>914</ele>
        <time>2025-04-12T09:29:26Z</time>
      </trkpt>
      <trkpt lat="45.43451" lon="5.67797">
        <ele>912</ele>
        <time>2025-04-12T09:29:33Z</time>
      </trkpt>
      <trkpt lat="45.43481" lon="5.67818">
        <ele>910</ele>
        <time>2025-04-12T09:29:51Z</time>
      </trkpt>
      <trkpt lat="45.43514" lon="5.67849">
        <ele>911</ele>
        <time>2025-04-12T09:30:12Z</time>
      </trkpt>
      <trkpt lat="45.43521" lon="5.67857">
        <ele>908</ele>
        <time>2025-04-12T09:30:20Z</time>
      </trkpt>
      <trkpt lat="45.43534" lon="5.6787">
        <ele>904</ele>
        <time>2025-04-12T09:30:33Z</time>
      </trkpt>
      <trkpt lat="45.43542" lon="5.67874">
        <ele>901</ele>
        <time>2025-04-12T09:30:39Z</time>
      </trkpt>
      <trkpt lat="45.43557" lon="5.67868">
        <ele>902</ele>
        <time>2025-04-12T09:30:48Z</time>
      </trkpt>
      <trkpt lat="45.43571" lon="5.67856">
        <ele>901</ele>
        <time>2025-04-12T09:30:59Z</time>
      </trkpt>
      <trkpt lat="45.43587" lon="5.67856">
        <ele>900</ele>
        <time>2025-04-12T09:31:13Z</time>
      </trkpt>
      <trkpt lat="45.43594" lon="5.67861">
        <ele>904</ele>
        <time>2025-04-12T09:31:18Z</time>
      </trkpt>
      <trkpt lat="45.43644" lon="5.679">
        <ele>908</ele>
        <time>2025-04-12T09:31:47Z</time>
      </trkpt>
      <trkpt lat="45.43664" lon="5.67917">
        <ele>911</ele>
        <time>2025-04-12T09:31:59Z</time>
      </trkpt>
      <trkpt lat="45.43678" lon="5.67925">
        <ele>910</ele>
        <time>2025-04-12T09:32:09Z</time>
      </trkpt>
      <trkpt lat="45.43686" lon="5.67926">
        <ele>911</ele>
        <time>2025-04-12T09:32:14Z</time>
      </trkpt>
      <trkpt lat="45.43708" lon="5.67938">
        <ele>911</ele>
        <time>2025-04-12T09:32:30Z</time>
      </trkpt>
      <trkpt lat="45.43731" lon="5.67968">
        <ele>912</ele>
        <time>2025-04-12T09:32:54Z</time>
      </trkpt>
      <trkpt lat="45.43737" lon="5.67973">
        <ele>911</ele>
        <time>2025-04-12T09:32:58Z</time>
      </trkpt>
      <trkpt lat="45.43743" lon="5.6798">
        <ele>911</ele>
        <time>2025-04-12T09:33:03Z</time>
      </trkpt>
      <trkpt lat="45.43757" lon="5.67989">
        <ele>911</ele>
        <time>2025-04-12T09:33:14Z</time>
      </trkpt>
      <trkpt lat="45.43764" lon="5.67994">
        <ele>908</ele>
        <time>2025-04-12T09:33:20Z</time>
      </trkpt>
      <trkpt lat="45.43772" lon="5.67997">
        <ele>910</ele>
        <time>2025-04-12T09:33:26Z</time>
      </trkpt>
      <trkpt lat="45.43795" lon="5.68014">
        <ele>909</ele>
        <time>2025-04-12T09:33:42Z</time>
      </trkpt>
      <trkpt lat="45.43807" lon="5.68028">
        <ele>910</ele>
        <time>2025-04-12T09:33:50Z</time>
      </trkpt>
      <trkpt lat="45.43827" lon="5.68048">
        <ele>911</ele>
        <time>2025-04-12T09:34:05Z</time>
      </trkpt>
      <trkpt lat="45.43842" lon="5.68055">
        <ele>911</ele>
        <time>2025-04-12T09:34:15Z</time>
      </trkpt>
      <trkpt lat="45.43847" lon="5.68063">
        <ele>912</ele>
        <time>2025-04-12T09:34:21Z</time>
      </trkpt>
      <trkpt lat="45.43877" lon="5.68116">
        <ele>914</ele>
        <time>2025-04-12T09:34:54Z</time>
      </trkpt>
      <trkpt lat="45.4388" lon="5.68125">
        <ele>915</ele>
        <time>2025-04-12T09:34:59Z</time>
      </trkpt>
      <trkpt lat="45.43881" lon="5.68136">
        <ele>914</ele>
        <time>2025-04-12T09:35:05Z</time>
      </trkpt>
      <trkpt lat="45.4388" lon="5.68147">
        <ele>911</ele>
        <time>2025-04-12T09:35:12Z</time>
      </trkpt>
      <trkpt lat="45.43879" lon="5.68159">
        <ele>909</ele>
        <time>2025-04-12T09:35:17Z</time>
      </trkpt>
      <trkpt lat="45.4388" lon="5.6817">
        <ele>904</ele>
        <time>2025-04-12T09:35:23Z</time>
      </trkpt>
      <trkpt lat="45.43869" lon="5.68214">
        <ele>902</ele>
        <time>2025-04-12T09:35:41Z</time>
      </trkpt>
      <trkpt lat="45.43854" lon="5.68268">
        <ele>902</ele>
        <time>2025-04-12T09:36:10Z</time>
      </trkpt>
      <trkpt lat="45.43842" lon="5.68322">
        <ele>898</ele>
        <time>2025-04-12T09:36:34Z</time>
      </trkpt>
      <trkpt lat="45.43841" lon="5.68334">
        <ele>897</ele>
        <time>2025-04-12T09:36:39Z</time>
      </trkpt>
      <trkpt lat="45.4384" lon="5.68344">
        <ele>895</ele>
        <time>2025-04-12T09:36:44Z</time>
      </trkpt>
      <trkpt lat="45.43847" lon="5.68377">
        <ele>893</ele>
        <time>2025-04-12T09:36:59Z</time>
      </trkpt>
      <trkpt lat="45.43851" lon="5.68388">
        <ele>893</ele>
        <time>2025-04-12T09:37:04Z</time>
      </trkpt>
      <trkpt lat="45.4386" lon="5.68431">
        <ele>890</ele>
        <time>2025-04-12T09:37:22Z</time>
      </trkpt>
      <trkpt lat="45.43865" lon="5.68452">
        <ele>888</ele>
        <time>2025-04-12T09:37:54Z</time>
      </trkpt>
      <trkpt lat="45.43868" lon="5.68463">
        <ele>886</ele>
        <time>2025-04-12T09:38:01Z</time>
      </trkpt>
      <trkpt lat="45.43871" lon="5.68473">
        <ele>884</ele>
        <time>2025-04-12T09:38:06Z</time>
      </trkpt>
      <trkpt lat="45.43873" lon="5.68483">
        <ele>882</ele>
        <time>2025-04-12T09:38:11Z</time>
      </trkpt>
      <trkpt lat="45.43881" lon="5.68517">
        <ele>878</ele>
        <time>2025-04-12T09:38:27Z</time>
      </trkpt>
      <trkpt lat="45.43879" lon="5.68527">
        <ele>879</ele>
        <time>2025-04-12T09:38:31Z</time>
      </trkpt>
      <trkpt lat="45.43874" lon="5.68536">
        <ele>880</ele>
        <time>2025-04-12T09:38:36Z</time>
      </trkpt>
      <trkpt lat="45.43866" lon="5.68535">
        <ele>881</ele>
        <time>2025-04-12T09:38:43Z</time>
      </trkpt>
      <trkpt lat="45.43858" lon="5.68539">
        <ele>881</ele>
        <time>2025-04-12T09:38:49Z</time>
      </trkpt>
      <trkpt lat="45.43865" lon="5.68558">
        <ele>882</ele>
        <time>2025-04-12T09:38:59Z</time>
      </trkpt>
      <trkpt lat="45.43898" lon="5.68604">
        <ele>881</ele>
        <time>2025-04-12T09:39:32Z</time>
      </trkpt>
      <trkpt lat="45.43904" lon="5.68611">
        <ele>881</ele>
        <time>2025-04-12T09:39:38Z</time>
      </trkpt>
      <trkpt lat="45.43938" lon="5.6866">
        <ele>877</ele>
        <time>2025-04-12T09:40:11Z</time>
      </trkpt>
      <trkpt lat="45.43943" lon="5.68667">
        <ele>876</ele>
        <time>2025-04-12T09:40:16Z</time>
      </trkpt>
      <trkpt lat="45.43977" lon="5.68715">
        <ele>873</ele>
        <time>2025-04-12T09:40:47Z</time>
      </trkpt>
      <trkpt lat="45.43993" lon="5.68737">
        <ele>871</ele>
        <time>2025-04-12T09:41:02Z</time>
      </trkpt>
      <trkpt lat="45.43999" lon="5.68746">
        <ele>872</ele>
        <time>2025-04-12T09:41:07Z</time>
      </trkpt>
      <trkpt lat="45.44005" lon="5.68769">
        <ele>871</ele>
        <time>2025-04-12T09:41:18Z</time>
      </trkpt>
      <trkpt lat="45.44008" lon="5.68801">
        <ele>870</ele>
        <time>2025-04-12T09:41:33Z</time>
      </trkpt>
      <trkpt lat="45.44007" lon="5.68812">
        <ele>871</ele>
        <time>2025-04-12T09:41:38Z</time>
      </trkpt>
      <trkpt lat="45.43999" lon="5.68831">
        <ele>870</ele>
        <time>2025-04-12T09:41:48Z</time>
      </trkpt>
      <trkpt lat="45.43992" lon="5.68839">
        <ele>871</ele>
        <time>2025-04-12T09:41:53Z</time>
      </trkpt>
      <trkpt lat="45.43977" lon="5.6885">
        <ele>871</ele>
        <time>2025-04-12T09:42:03Z</time>
      </trkpt>
      <trkpt lat="45.43965" lon="5.68866">
        <ele>871</ele>
        <time>2025-04-12T09:42:14Z</time>
      </trkpt>
      <trkpt lat="45.43961" lon="5.68876">
        <ele>870</ele>
        <time>2025-04-12T09:43:09Z</time>
      </trkpt>
      <trkpt lat="45.43958" lon="5.68886">
        <ele>870</ele>
        <time>2025-04-12T09:43:15Z</time>
      </trkpt>
      <trkpt lat="45.43952" lon="5.68894">
        <ele>871</ele>
        <time>2025-04-12T09:43:20Z</time>
      </trkpt>
      <trkpt lat="45.43949" lon="5.68904">
        <ele>871</ele>
        <time>2025-04-12T09:43:25Z</time>
      </trkpt>
      <trkpt lat="45.43955" lon="5.68911">
        <ele>872</ele>
        <time>2025-04-12T09:43:31Z</time>
      </trkpt>
      <trkpt lat="45.44001" lon="5.68914">
        <ele>874</ele>
        <time>2025-04-12T09:44:05Z</time>
      </trkpt>
      <trkpt lat="45.44047" lon="5.6892">
        <ele>875</ele>
        <time>2025-04-12T09:44:36Z</time>
      </trkpt>
      <trkpt lat="45.44088" lon="5.68933">
        <ele>874</ele>
        <time>2025-04-12T09:45:03Z</time>
      </trkpt>
      <trkpt lat="45.44108" lon="5.68955">
        <ele>874</ele>
        <time>2025-04-12T09:45:20Z</time>
      </trkpt>
      <trkpt lat="45.44147" lon="5.68973">
        <ele>876</ele>
        <time>2025-04-12T09:45:44Z</time>
      </trkpt>
      <trkpt lat="45.44155" lon="5.68975">
        <ele>876</ele>
        <time>2025-04-12T09:45:49Z</time>
      </trkpt>
      <trkpt lat="45.44172" lon="5.68977">
        <ele>874</ele>
        <time>2025-04-12T09:45:59Z</time>
      </trkpt>
      <trkpt lat="45.44219" lon="5.6899">
        <ele>875</ele>
        <time>2025-04-12T09:46:30Z</time>
      </trkpt>
      <trkpt lat="45.44236" lon="5.68996">
        <ele>875</ele>
        <time>2025-04-12T09:46:41Z</time>
      </trkpt>
      <trkpt lat="45.44289" lon="5.69017">
        <ele>877</ele>
        <time>2025-04-12T09:47:15Z</time>
      </trkpt>
      <trkpt lat="45.44311" lon="5.69027">
        <ele>875</ele>
        <time>2025-04-12T09:47:33Z</time>
      </trkpt>
      <trkpt lat="45.44343" lon="5.69023">
        <ele>874</ele>
        <time>2025-04-12T09:47:53Z</time>
      </trkpt>
      <trkpt lat="45.4435" lon="5.6902">
        <ele>874</ele>
        <time>2025-04-12T09:47:58Z</time>
      </trkpt>
      <trkpt lat="45.44358" lon="5.69019">
        <ele>871</ele>
        <time>2025-04-12T09:48:03Z</time>
      </trkpt>
      <trkpt lat="45.44406" lon="5.69027">
        <ele>869</ele>
        <time>2025-04-12T09:48:33Z</time>
      </trkpt>
      <trkpt lat="45.44444" lon="5.69036">
        <ele>865</ele>
        <time>2025-04-12T09:48:57Z</time>
      </trkpt>
      <trkpt lat="45.4445" lon="5.69032">
        <ele>866</ele>
        <time>2025-04-12T09:49:02Z</time>
      </trkpt>
      <trkpt lat="45.44461" lon="5.6899">
        <ele>867</ele>
        <time>2025-04-12T09:49:24Z</time>
      </trkpt>
      <trkpt lat="45.44466" lon="5.68982">
        <ele>868</ele>
        <time>2025-04-12T09:49:29Z</time>
      </trkpt>
      <trkpt lat="45.44473" lon="5.68975">
        <ele>867</ele>
        <time>2025-04-12T09:49:35Z</time>
      </trkpt>
      <trkpt lat="45.4453" lon="5.68984">
        <ele>871</ele>
        <time>2025-04-12T09:50:07Z</time>
      </trkpt>
      <trkpt lat="45.44584" lon="5.68993">
        <ele>868</ele>
        <time>2025-04-12T09:50:39Z</time>
      </trkpt>
      <trkpt lat="45.44592" lon="5.68993">
        <ele>868</ele>
        <time>2025-04-12T09:50:44Z</time>
      </trkpt>
      <trkpt lat="45.44646" lon="5.6899">
        <ele>865</ele>
        <time>2025-04-12T09:51:15Z</time>
      </trkpt>
      <trkpt lat="45.44693" lon="5.68996">
        <ele>863</ele>
        <time>2025-04-12T09:51:44Z</time>
      </trkpt>
      <trkpt lat="45.44701" lon="5.69002">
        <ele>861</ele>
        <time>2025-04-12T09:51:50Z</time>
      </trkpt>
      <trkpt lat="45.44706" lon="5.6901">
        <ele>860</ele>
        <time>2025-04-12T09:51:55Z</time>
      </trkpt>
      <trkpt lat="45.44715" lon="5.69015">
        <ele>861</ele>
        <time>2025-04-12T09:52:00Z</time>
      </trkpt>
      <trkpt lat="45.44722" lon="5.69017">
        <ele>858</ele>
        <time>2025-04-12T09:52:05Z</time>
      </trkpt>
      <trkpt lat="45.4473" lon="5.69017">
        <ele>855</ele>
        <time>2025-04-12T09:52:10Z</time>
      </trkpt>
      <trkpt lat="45.44747" lon="5.69023">
        <ele>854</ele>
        <time>2025-04-12T09:52:20Z</time>
      </trkpt>
      <trkpt lat="45.44779" lon="5.69026">
        <ele>856</ele>
        <time>2025-04-12T09:52:40Z</time>
      </trkpt>
      <trkpt lat="45.44809" lon="5.69029">
        <ele>858</ele>
        <time>2025-04-12T09:53:01Z</time>
      </trkpt>
      <trkpt lat="45.44832" lon="5.69044">
        <ele>858</ele>
        <time>2025-04-12T09:53:17Z</time>
      </trkpt>
      <trkpt lat="45.44852" lon="5.69067">
        <ele>859</ele>
        <time>2025-04-12T09:53:34Z</time>
      </trkpt>
      <trkpt lat="45.44858" lon="5.69072">
        <ele>856</ele>
        <time>2025-04-12T09:53:40Z</time>
      </trkpt>
      <trkpt lat="45.44864" lon="5.69079">
        <ele>853</ele>
        <time>2025-04-12T09:53:46Z</time>
      </trkpt>
      <trkpt lat="45.44872" lon="5.69083">
        <ele>851</ele>
        <time>2025-04-12T09:53:51Z</time>
      </trkpt>
      <trkpt lat="45.44907" lon="5.69132">
        <ele>852</ele>
        <time>2025-04-12T09:54:21Z</time>
      </trkpt>
      <trkpt lat="45.44928" lon="5.69166">
        <ele>855</ele>
        <time>2025-04-12T09:54:41Z</time>
      </trkpt>
      <trkpt lat="45.44962" lon="5.69211">
        <ele>857</ele>
        <time>2025-04-12T09:55:11Z</time>
      </trkpt>
      <trkpt lat="45.44968" lon="5.69218">
        <ele>857</ele>
        <time>2025-04-12T09:55:16Z</time>
      </trkpt>
      <trkpt lat="45.44973" lon="5.69227">
        <ele>855</ele>
        <time>2025-04-12T09:55:25Z</time>
      </trkpt>
      <trkpt lat="45.4498" lon="5.69231">
        <ele>856</ele>
        <time>2025-04-12T09:55:33Z</time>
      </trkpt>
      <trkpt lat="45.44982" lon="5.69229">
        <ele>855</ele>
        <time>2025-04-12T09:57:19Z</time>
      </trkpt>
      <trkpt lat="45.44988" lon="5.69222">
        <ele>855</ele>
        <time>2025-04-12T09:57:29Z</time>
      </trkpt>
      <trkpt lat="45.44996" lon="5.69221">
        <ele>848</ele>
        <time>2025-04-12T09:57:39Z</time>
      </trkpt>
      <trkpt lat="45.45004" lon="5.69223">
        <ele>850</ele>
        <time>2025-04-12T09:57:43Z</time>
      </trkpt>
      <trkpt lat="45.45011" lon="5.69228">
        <ele>851</ele>
        <time>2025-04-12T09:57:48Z</time>
      </trkpt>
      <trkpt lat="45.45018" lon="5.69229">
        <ele>852</ele>
        <time>2025-04-12T09:57:53Z</time>
      </trkpt>
      <trkpt lat="45.45025" lon="5.69224">
        <ele>850</ele>
        <time>2025-04-12T09:57:59Z</time>
      </trkpt>
      <trkpt lat="45.45028" lon="5.69214">
        <ele>849</ele>
        <time>2025-04-12T09:58:04Z</time>
      </trkpt>
      <trkpt lat="45.45025" lon="5.69204">
        <ele>847</ele>
        <time>2025-04-12T09:58:12Z</time>
      </trkpt>
      <trkpt lat="45.45031" lon="5.69196">
        <ele>865</ele>
        <time>2025-04-12T10:32:19Z</time>
      </trkpt>
      <trkpt lat="45.45021" lon="5.69179">
        <ele>849</ele>
        <time>2025-04-12T10:32:32Z</time>
      </trkpt>
      <trkpt lat="45.45012" lon="5.6915">
        <ele>847</ele>
        <time>2025-04-12T10:32:55Z</time>
      </trkpt>
      <trkpt lat="45.45007" lon="5.69127">
        <ele>845</ele>
        <time>2025-04-12T10:33:10Z</time>
      </trkpt>
      <trkpt lat="45.45006" lon="5.69116">
        <ele>844</ele>
        <time>2025-04-12T10:33:17Z</time>
      </trkpt>
      <trkpt lat="45.45006" lon="5.69106">
        <ele>842</ele>
        <time>2025-04-12T10:33:26Z</time>
      </trkpt>
      <trkpt lat="45.45003" lon="5.69096">
        <ele>840</ele>
        <time>2025-04-12T10:33:34Z</time>
      </trkpt>
      <trkpt lat="45.45004" lon="5.69084">
        <ele>837</ele>
        <time>2025-04-12T10:33:44Z</time>
      </trkpt>
      <trkpt lat="45.45008" lon="5.69075">
        <ele>839</ele>
        <time>2025-04-12T10:33:51Z</time>
      </trkpt>
      <trkpt lat="45.45015" lon="5.69078">
        <ele>826</ele>
        <time>2025-04-12T10:35:08Z</time>
      </trkpt>
      <trkpt lat="45.45032" lon="5.69099">
        <ele>822</ele>
        <time>2025-04-12T10:35:28Z</time>
      </trkpt>
      <trkpt lat="45.45035" lon="5.69109">
        <ele>825</ele>
        <time>2025-04-12T10:35:53Z</time>
      </trkpt>
      <trkpt lat="45.45069" lon="5.69137">
        <ele>828</ele>
        <time>2025-04-12T10:36:27Z</time>
      </trkpt>
      <trkpt lat="45.45079" lon="5.69152">
        <ele>828</ele>
        <time>2025-04-12T10:36:41Z</time>
      </trkpt>
      <trkpt lat="45.45083" lon="5.69162">
        <ele>829</ele>
        <time>2025-04-12T10:36:49Z</time>
      </trkpt>
      <trkpt lat="45.45089" lon="5.6917">
        <ele>830</ele>
        <time>2025-04-12T10:36:55Z</time>
      </trkpt>
      <trkpt lat="45.45096" lon="5.69175">
        <ele>830</ele>
        <time>2025-04-12T10:37:01Z</time>
      </trkpt>
      <trkpt lat="45.45109" lon="5.6919">
        <ele>827</ele>
        <time>2025-04-12T10:37:14Z</time>
      </trkpt>
      <trkpt lat="45.45131" lon="5.69201">
        <ele>827</ele>
        <time>2025-04-12T10:37:33Z</time>
      </trkpt>
      <trkpt lat="45.45145" lon="5.69205">
        <ele>828</ele>
        <time>2025-04-12T10:37:46Z</time>
      </trkpt>
      <trkpt lat="45.45166" lon="5.6922">
        <ele>829</ele>
        <time>2025-04-12T10:38:04Z</time>
      </trkpt>
      <trkpt lat="45.45174" lon="5.69219">
        <ele>829</ele>
        <time>2025-04-12T10:38:12Z</time>
      </trkpt>
      <trkpt lat="45.45189" lon="5.69222">
        <ele>824</ele>
        <time>2025-04-12T10:38:24Z</time>
      </trkpt>
      <trkpt lat="45.45197" lon="5.6922">
        <ele>821</ele>
        <time>2025-04-12T10:38:31Z</time>
      </trkpt>
      <trkpt lat="45.45205" lon="5.69221">
        <ele>819</ele>
        <time>2025-04-12T10:38:40Z</time>
      </trkpt>
      <trkpt lat="45.45213" lon="5.69224">
        <ele>818</ele>
        <time>2025-04-12T10:38:47Z</time>
      </trkpt>
      <trkpt lat="45.4522" lon="5.69222">
        <ele>817</ele>
        <time>2025-04-12T10:38:53Z</time>
      </trkpt>
      <trkpt lat="45.45235" lon="5.69221">
        <ele>807</ele>
        <time>2025-04-12T10:39:10Z</time>
      </trkpt>
      <trkpt lat="45.45266" lon="5.69234">
        <ele>802</ele>
        <time>2025-04-12T10:39:41Z</time>
      </trkpt>
      <trkpt lat="45.4529" lon="5.69232">
        <ele>803</ele>
        <time>2025-04-12T10:39:59Z</time>
      </trkpt>
      <trkpt lat="45.45321" lon="5.69236">
        <ele>802</ele>
        <time>2025-04-12T10:40:25Z</time>
      </trkpt>
      <trkpt lat="45.45329" lon="5.69235">
        <ele>801</ele>
        <time>2025-04-12T10:40:32Z</time>
      </trkpt>
      <trkpt lat="45.45339" lon="5.69239">
        <ele>802</ele>
        <time>2025-04-12T10:40:42Z</time>
      </trkpt>
      <trkpt lat="45.45351" lon="5.69252">
        <ele>800</ele>
        <time>2025-04-12T10:40:55Z</time>
      </trkpt>
      <trkpt lat="45.45359" lon="5.69255">
        <ele>800</ele>
        <time>2025-04-12T10:41:04Z</time>
      </trkpt>
      <trkpt lat="45.45376" lon="5.69255">
        <ele>800</ele>
        <time>2025-04-12T10:41:13Z</time>
      </trkpt>
      <trkpt lat="45.45392" lon="5.69248">
        <ele>801</ele>
        <time>2025-04-12T10:41:23Z</time>
      </trkpt>
      <trkpt lat="45.45408" lon="5.69251">
        <ele>802</ele>
        <time>2025-04-12T10:41:35Z</time>
      </trkpt>
      <trkpt lat="45.45454" lon="5.69248">
        <ele>802</ele>
        <time>2025-04-12T10:42:06Z</time>
      </trkpt>
      <trkpt lat="45.45461" lon="5.69247">
        <ele>805</ele>
        <time>2025-04-12T10:42:12Z</time>
      </trkpt>
      <trkpt lat="45.45483" lon="5.69234">
        <ele>807</ele>
        <time>2025-04-12T10:42:26Z</time>
      </trkpt>
      <trkpt lat="45.45498" lon="5.69226">
        <ele>808</ele>
        <time>2025-04-12T10:42:35Z</time>
      </trkpt>
      <trkpt lat="45.45503" lon="5.69219">
        <ele>807</ele>
        <time>2025-04-12T10:42:40Z</time>
      </trkpt>
      <trkpt lat="45.4551" lon="5.69213">
        <ele>805</ele>
        <time>2025-04-12T10:42:49Z</time>
      </trkpt>
      <trkpt lat="45.45524" lon="5.69204">
        <ele>796</ele>
        <time>2025-04-12T10:43:07Z</time>
      </trkpt>
      <trkpt lat="45.45527" lon="5.69193">
        <ele>795</ele>
        <time>2025-04-12T10:43:13Z</time>
      </trkpt>
      <trkpt lat="45.45524" lon="5.69183">
        <ele>795</ele>
        <time>2025-04-12T10:43:29Z</time>
      </trkpt>
      <trkpt lat="45.4551" lon="5.69175">
        <ele>792</ele>
        <time>2025-04-12T10:43:40Z</time>
      </trkpt>
      <trkpt lat="45.45502" lon="5.69172">
        <ele>788</ele>
        <time>2025-04-12T10:43:48Z</time>
      </trkpt>
      <trkpt lat="45.45465" lon="5.69131">
        <ele>785</ele>
        <time>2025-04-12T10:44:21Z</time>
      </trkpt>
      <trkpt lat="45.45442" lon="5.69099">
        <ele>786</ele>
        <time>2025-04-12T10:44:41Z</time>
      </trkpt>
      <trkpt lat="45.45435" lon="5.69095">
        <ele>782</ele>
        <time>2025-04-12T10:44:47Z</time>
      </trkpt>
      <trkpt lat="45.45427" lon="5.69094">
        <ele>782</ele>
        <time>2025-04-12T10:44:52Z</time>
      </trkpt>
      <trkpt lat="45.45419" lon="5.69092">
        <ele>780</ele>
        <time>2025-04-12T10:44:58Z</time>
      </trkpt>
      <trkpt lat="45.45399" lon="5.69074">
        <ele>778</ele>
        <time>2025-04-12T10:45:13Z</time>
      </trkpt>
      <trkpt lat="45.45393" lon="5.69065">
        <ele>776</ele>
        <time>2025-04-12T10:45:18Z</time>
      </trkpt>
      <trkpt lat="45.45388" lon="5.69057">
        <ele>774</ele>
        <time>2025-04-12T10:45:24Z</time>
      </trkpt>
      <trkpt lat="45.45381" lon="5.69052">
        <ele>769</ele>
        <time>2025-04-12T10:45:32Z</time>
      </trkpt>
      <trkpt lat="45.45377" lon="5.69042">
        <ele>766</ele>
        <time>2025-04-12T10:45:39Z</time>
      </trkpt>
      <trkpt lat="45.45373" lon="5.69031">
        <ele>763</ele>
        <time>2025-04-12T10:45:45Z</time>
      </trkpt>
      <trkpt lat="45.4536" lon="5.69">
        <ele>760</ele>
        <time>2025-04-12T10:45:59Z</time>
      </trkpt>
      <trkpt lat="45.45355" lon="5.68991">
        <ele>758</ele>
        <time>2025-04-12T10:46:06Z</time>
      </trkpt>
      <trkpt lat="45.45353" lon="5.6898">
        <ele>755</ele>
        <time>2025-04-12T10:46:11Z</time>
      </trkpt>
      <trkpt lat="45.45351" lon="5.68958">
        <ele>751</ele>
        <time>2025-04-12T10:46:24Z</time>
      </trkpt>
      <trkpt lat="45.45353" lon="5.68946">
        <ele>748</ele>
        <time>2025-04-12T10:46:37Z</time>
      </trkpt>
      <trkpt lat="45.45355" lon="5.68935">
        <ele>744</ele>
        <time>2025-04-12T10:46:45Z</time>
      </trkpt>
      <trkpt lat="45.45358" lon="5.68924">
        <ele>741</ele>
        <time>2025-04-12T10:46:52Z</time>
      </trkpt>
      <trkpt lat="45.45373" lon="5.68897">
        <ele>728</ele>
        <time>2025-04-12T10:47:14Z</time>
      </trkpt>
      <trkpt lat="45.4538" lon="5.68893">
        <ele>725</ele>
        <time>2025-04-12T10:47:20Z</time>
      </trkpt>
      <trkpt lat="45.45387" lon="5.68891">
        <ele>721</ele>
        <time>2025-04-12T10:47:28Z</time>
      </trkpt>
      <trkpt lat="45.45417" lon="5.68897">
        <ele>713</ele>
        <time>2025-04-12T10:47:55Z</time>
      </trkpt>
      <trkpt lat="45.45425" lon="5.68904">
        <ele>713</ele>
        <time>2025-04-12T10:48:03Z</time>
      </trkpt>
      <trkpt lat="45.45432" lon="5.68903">
        <ele>708</ele>
        <time>2025-04-12T10:48:10Z</time>
      </trkpt>
      <trkpt lat="45.45437" lon="5.68896">
        <ele>707</ele>
        <time>2025-04-12T10:48:21Z</time>
      </trkpt>
      <trkpt lat="45.45438" lon="5.68884">
        <ele>706</ele>
        <time>2025-04-12T10:48:27Z</time>
      </trkpt>
      <trkpt lat="45.45436" lon="5.68873">
        <ele>705</ele>
        <time>2025-04-12T10:48:34Z</time>
      </trkpt>
      <trkpt lat="45.45437" lon="5.68862">
        <ele>703</ele>
        <time>2025-04-12T10:48:42Z</time>
      </trkpt>
      <trkpt lat="45.45443" lon="5.6884">
        <ele>701</ele>
        <time>2025-04-12T10:48:57Z</time>
      </trkpt>
      <trkpt lat="45.45451" lon="5.68818">
        <ele>699</ele>
        <time>2025-04-12T10:49:10Z</time>
      </trkpt>
      <trkpt lat="45.45462" lon="5.68803">
        <ele>696</ele>
        <time>2025-04-12T10:49:20Z</time>
      </trkpt>
      <trkpt lat="45.45468" lon="5.68795">
        <ele>694</ele>
        <time>2025-04-12T10:49:25Z</time>
      </trkpt>
      <trkpt lat="45.45475" lon="5.68788">
        <ele>691</ele>
        <time>2025-04-12T10:49:32Z</time>
      </trkpt>
      <trkpt lat="45.45482" lon="5.68786">
        <ele>690</ele>
        <time>2025-04-12T10:49:39Z</time>
      </trkpt>
      <trkpt lat="45.4549" lon="5.68782">
        <ele>687</ele>
        <time>2025-04-12T10:49:45Z</time>
      </trkpt>
      <trkpt lat="45.45495" lon="5.68774">
        <ele>687</ele>
        <time>2025-04-12T10:49:51Z</time>
      </trkpt>
      <trkpt lat="45.45494" lon="5.68763">
        <ele>686</ele>
        <time>2025-04-12T10:49:57Z</time>
      </trkpt>
      <trkpt lat="45.4549" lon="5.68753">
        <ele>684</ele>
        <time>2025-04-12T10:50:03Z</time>
      </trkpt>
      <trkpt lat="45.4549" lon="5.68741">
        <ele>681</ele>
        <time>2025-04-12T10:50:11Z</time>
      </trkpt>
      <trkpt lat="45.45498" lon="5.68707">
        <ele>677</ele>
        <time>2025-04-12T10:50:34Z</time>
      </trkpt>
      <trkpt lat="45.45494" lon="5.68699">
        <ele>678</ele>
        <time>2025-04-12T10:50:51Z</time>
      </trkpt>
      <trkpt lat="45.45486" lon="5.68703">
        <ele>680</ele>
        <time>2025-04-12T10:50:57Z</time>
      </trkpt>
      <trkpt lat="45.45478" lon="5.68703">
        <ele>680</ele>
        <time>2025-04-12T10:51:04Z</time>
      </trkpt>
      <trkpt lat="45.4547" lon="5.687">
        <ele>678</ele>
        <time>2025-04-12T10:51:13Z</time>
      </trkpt>
      <trkpt lat="45.45463" lon="5.68702">
        <ele>678</ele>
        <time>2025-04-12T10:51:18Z</time>
      </trkpt>
      <trkpt lat="45.45456" lon="5.68697">
        <ele>680</ele>
        <time>2025-04-12T10:51:24Z</time>
      </trkpt>
      <trkpt lat="45.45449" lon="5.68693">
        <ele>683</ele>
        <time>2025-04-12T10:51:30Z</time>
      </trkpt>
      <trkpt lat="45.45441" lon="5.68692">
        <ele>688</ele>
        <time>2025-04-12T10:51:37Z</time>
      </trkpt>
      <trkpt lat="45.45434" lon="5.68694">
        <ele>690</ele>
        <time>2025-04-12T10:51:43Z</time>
      </trkpt>
      <trkpt lat="45.45426" lon="5.68696">
        <ele>693</ele>
        <time>2025-04-12T10:51:51Z</time>
      </trkpt>
      <trkpt lat="45.45419" lon="5.68696">
        <ele>695</ele>
        <time>2025-04-12T10:51:57Z</time>
      </trkpt>
      <trkpt lat="45.45411" lon="5.68697">
        <ele>697</ele>
        <time>2025-04-12T10:52:03Z</time>
      </trkpt>
      <trkpt lat="45.45404" lon="5.687">
        <ele>699</ele>
        <time>2025-04-12T10:52:09Z</time>
      </trkpt>
      <trkpt lat="45.45397" lon="5.68702">
        <ele>702</ele>
        <time>2025-04-12T10:52:21Z</time>
      </trkpt>
      <trkpt lat="45.4539" lon="5.68704">
        <ele>706</ele>
        <time>2025-04-12T10:52:36Z</time>
      </trkpt>
      <trkpt lat="45.45383" lon="5.6871">
        <ele>707</ele>
        <time>2025-04-12T10:52:43Z</time>
      </trkpt>
      <trkpt lat="45.45375" lon="5.68712">
        <ele>712</ele>
        <time>2025-04-12T10:52:55Z</time>
      </trkpt>
      <trkpt lat="45.45349" lon="5.68737">
        <ele>725</ele>
        <time>2025-04-12T10:53:31Z</time>
      </trkpt>
      <trkpt lat="45.45342" lon="5.68743">
        <ele>729</ele>
        <time>2025-04-12T10:53:58Z</time>
      </trkpt>
      <trkpt lat="45.45336" lon="5.68749">
        <ele>727</ele>
        <time>2025-04-12T10:54:05Z</time>
      </trkpt>
      <trkpt lat="45.45328" lon="5.68752">
        <ele>731</ele>
        <time>2025-04-12T10:54:15Z</time>
      </trkpt>
      <trkpt lat="45.45321" lon="5.68752">
        <ele>733</ele>
        <time>2025-04-12T10:54:30Z</time>
      </trkpt>
      <trkpt lat="45.45313" lon="5.68754">
        <ele>735</ele>
        <time>2025-04-12T10:54:37Z</time>
      </trkpt>
      <trkpt lat="45.45298" lon="5.6875">
        <ele>738</ele>
        <time>2025-04-12T10:55:11Z</time>
      </trkpt>
      <trkpt lat="45.45291" lon="5.68752">
        <ele>741</ele>
        <time>2025-04-12T10:55:17Z</time>
      </trkpt>
      <trkpt lat="45.45284" lon="5.68752">
        <ele>744</ele>
        <time>2025-04-12T10:55:35Z</time>
      </trkpt>
      <trkpt lat="45.45276" lon="5.68756">
        <ele>746</ele>
        <time>2025-04-12T10:55:42Z</time>
      </trkpt>
      <trkpt lat="45.45269" lon="5.6876">
        <ele>749</ele>
        <time>2025-04-12T10:55:50Z</time>
      </trkpt>
      <trkpt lat="45.45262" lon="5.68763">
        <ele>751</ele>
        <time>2025-04-12T10:56:08Z</time>
      </trkpt>
      <trkpt lat="45.45248" lon="5.6877">
        <ele>752</ele>
        <time>2025-04-12T10:56:21Z</time>
      </trkpt>
      <trkpt lat="45.4524" lon="5.68771">
        <ele>754</ele>
        <time>2025-04-12T10:56:29Z</time>
      </trkpt>
      <trkpt lat="45.45234" lon="5.68774">
        <ele>757</ele>
        <time>2025-04-12T10:56:36Z</time>
      </trkpt>
      <trkpt lat="45.45216" lon="5.68774">
        <ele>759</ele>
        <time>2025-04-12T10:56:49Z</time>
      </trkpt>
      <trkpt lat="45.45208" lon="5.68772">
        <ele>764</ele>
        <time>2025-04-12T10:57:04Z</time>
      </trkpt>
      <trkpt lat="45.452" lon="5.68774">
        <ele>765</ele>
        <time>2025-04-12T10:57:10Z</time>
      </trkpt>
      <trkpt lat="45.4518" lon="5.68791">
        <ele>764</ele>
        <time>2025-04-12T10:57:30Z</time>
      </trkpt>
      <trkpt lat="45.45166" lon="5.68795">
        <ele>765</ele>
        <time>2025-04-12T10:57:44Z</time>
      </trkpt>
      <trkpt lat="45.45158" lon="5.68798">
        <ele>767</ele>
        <time>2025-04-12T10:57:57Z</time>
      </trkpt>
      <trkpt lat="45.45151" lon="5.68796">
        <ele>768</ele>
        <time>2025-04-12T10:58:03Z</time>
      </trkpt>
      <trkpt lat="45.45142" lon="5.68795">
        <ele>765</ele>
        <time>2025-04-12T10:58:10Z</time>
      </trkpt>
      <trkpt lat="45.45135" lon="5.6879">
        <ele>769</ele>
        <time>2025-04-12T10:58:15Z</time>
      </trkpt>
      <trkpt lat="45.45132" lon="5.68779">
        <ele>777</ele>
        <time>2025-04-12T10:58:20Z</time>
      </trkpt>
      <trkpt lat="45.4513" lon="5.68767">
        <ele>780</ele>
        <time>2025-04-12T10:58:26Z</time>
      </trkpt>
      <trkpt lat="45.45134" lon="5.68757">
        <ele>779</ele>
        <time>2025-04-12T10:58:33Z</time>
      </trkpt>
      <trkpt lat="45.4514" lon="5.68749">
        <ele>778</ele>
        <time>2025-04-12T10:58:40Z</time>
      </trkpt>
      <trkpt lat="45.45147" lon="5.68717">
        <ele>780</ele>
        <time>2025-04-12T10:58:58Z</time>
      </trkpt>
      <trkpt lat="45.45147" lon="5.68694">
        <ele>781</ele>
        <time>2025-04-12T10:59:13Z</time>
      </trkpt>
      <trkpt lat="45.45154" lon="5.68662">
        <ele>780</ele>
        <time>2025-04-12T10:59:33Z</time>
      </trkpt>
      <trkpt lat="45.45155" lon="5.68651">
        <ele>778</ele>
        <time>2025-04-12T10:59:39Z</time>
      </trkpt>
      <trkpt lat="45.4515" lon="5.68607">
        <ele>778</ele>
        <time>2025-04-12T11:00:04Z</time>
      </trkpt>
      <trkpt lat="45.45131" lon="5.68544">
        <ele>778</ele>
        <time>2025-04-12T11:00:38Z</time>
      </trkpt>
      <trkpt lat="45.45113" lon="5.68495">
        <ele>777</ele>
        <time>2025-04-12T11:01:06Z</time>
      </trkpt>
      <trkpt lat="45.45111" lon="5.68482">
        <ele>778</ele>
        <time>2025-04-12T11:01:11Z</time>
      </trkpt>
      <trkpt lat="45.45099" lon="5.68456">
        <ele>782</ele>
        <time>2025-04-12T11:01:26Z</time>
      </trkpt>
      <trkpt lat="45.45089" lon="5.68438">
        <ele>780</ele>
        <time>2025-04-12T11:01:39Z</time>
      </trkpt>
      <trkpt lat="45.45086" lon="5.68429">
        <ele>778</ele>
        <time>2025-04-12T11:01:45Z</time>
      </trkpt>
      <trkpt lat="45.45071" lon="5.68404">
        <ele>779</ele>
        <time>2025-04-12T11:02:01Z</time>
      </trkpt>
      <trkpt lat="45.45058" lon="5.68391">
        <ele>779</ele>
        <time>2025-04-12T11:02:13Z</time>
      </trkpt>
      <trkpt lat="45.45035" lon="5.68375">
        <ele>777</ele>
        <time>2025-04-12T11:02:31Z</time>
      </trkpt>
      <trkpt lat="45.4501" lon="5.68347">
        <ele>779</ele>
        <time>2025-04-12T11:02:55Z</time>
      </trkpt>
      <trkpt lat="45.45002" lon="5.68341">
        <ele>779</ele>
        <time>2025-04-12T11:03:01Z</time>
      </trkpt>
      <trkpt lat="45.44983" lon="5.6832">
        <ele>780</ele>
        <time>2025-04-12T11:03:18Z</time>
      </trkpt>
      <trkpt lat="45.44976" lon="5.68316">
        <ele>778</ele>
        <time>2025-04-12T11:03:25Z</time>
      </trkpt>
      <trkpt lat="45.44969" lon="5.68313">
        <ele>776</ele>
        <time>2025-04-12T11:03:32Z</time>
      </trkpt>
      <trkpt lat="45.44964" lon="5.68305">
        <ele>776</ele>
        <time>2025-04-12T11:03:37Z</time>
      </trkpt>
      <trkpt lat="45.44936" lon="5.68265">
        <ele>781</ele>
        <time>2025-04-12T11:04:00Z</time>
      </trkpt>
      <trkpt lat="45.44923" lon="5.68252">
        <ele>782</ele>
        <time>2025-04-12T11:04:10Z</time>
      </trkpt>
      <trkpt lat="45.44902" lon="5.68234">
        <ele>782</ele>
        <time>2025-04-12T11:04:27Z</time>
      </trkpt>
      <trkpt lat="45.44874" lon="5.68214">
        <ele>775</ele>
        <time>2025-04-12T11:04:51Z</time>
      </trkpt>
      <trkpt lat="45.44854" lon="5.68181">
        <ele>775</ele>
        <time>2025-04-12T11:05:12Z</time>
      </trkpt>
      <trkpt lat="45.44847" lon="5.68173">
        <ele>773</ele>
        <time>2025-04-12T11:05:18Z</time>
      </trkpt>
      <trkpt lat="45.44838" lon="5.68156">
        <ele>774</ele>
        <time>2025-04-12T11:05:27Z</time>
      </trkpt>
      <trkpt lat="45.44831" lon="5.68136">
        <ele>772</ele>
        <time>2025-04-12T11:05:39Z</time>
      </trkpt>
      <trkpt lat="45.44827" lon="5.68126">
        <ele>772</ele>
        <time>2025-04-12T11:05:44Z</time>
      </trkpt>
      <trkpt lat="45.44821" lon="5.68119">
        <ele>771</ele>
        <time>2025-04-12T11:05:49Z</time>
      </trkpt>
      <trkpt lat="45.44801" lon="5.681">
        <ele>772</ele>
        <time>2025-04-12T11:06:06Z</time>
      </trkpt>
      <trkpt lat="45.44779" lon="5.68068">
        <ele>774</ele>
        <time>2025-04-12T11:06:29Z</time>
      </trkpt>
      <trkpt lat="45.44772" lon="5.68063">
        <ele>774</ele>
        <time>2025-04-12T11:06:35Z</time>
      </trkpt>
      <trkpt lat="45.44761" lon="5.68048">
        <ele>775</ele>
        <time>2025-04-12T11:06:46Z</time>
      </trkpt>
      <trkpt lat="45.44754" lon="5.68043">
        <ele>772</ele>
        <time>2025-04-12T11:06:53Z</time>
      </trkpt>
      <trkpt lat="45.4472" lon="5.68015">
        <ele>767</ele>
        <time>2025-04-12T11:07:23Z</time>
      </trkpt>
      <trkpt lat="45.44707" lon="5.68004">
        <ele>761</ele>
        <time>2025-04-12T11:07:34Z</time>
      </trkpt>
      <trkpt lat="45.44695" lon="5.67989">
        <ele>759</ele>
        <time>2025-04-12T11:07:44Z</time>
      </trkpt>
      <trkpt lat="45.44689" lon="5.67984">
        <ele>757</ele>
        <time>2025-04-12T11:07:49Z</time>
      </trkpt>
      <trkpt lat="45.44681" lon="5.67981">
        <ele>757</ele>
        <time>2025-04-12T11:07:56Z</time>
      </trkpt>
      <trkpt lat="45.44674" lon="5.67977">
        <ele>759</ele>
        <time>2025-04-12T11:08:01Z</time>
      </trkpt>
      <trkpt lat="45.4464" lon="5.67948">
        <ele>759</ele>
        <time>2025-04-12T11:08:31Z</time>
      </trkpt>
      <trkpt lat="45.44633" lon="5.67943">
        <ele>758</ele>
        <time>2025-04-12T11:08:39Z</time>
      </trkpt>
      <trkpt lat="45.44613" lon="5.67897">
        <ele>757</ele>
        <time>2025-04-12T11:09:04Z</time>
      </trkpt>
      <trkpt lat="45.44589" lon="5.67865">
        <ele>758</ele>
        <time>2025-04-12T11:09:23Z</time>
      </trkpt>
      <trkpt lat="45.44583" lon="5.67857">
        <ele>754</ele>
        <time>2025-04-12T11:09:30Z</time>
      </trkpt>
      <trkpt lat="45.4455" lon="5.6781">
        <ele>754</ele>
        <time>2025-04-12T11:10:00Z</time>
      </trkpt>
      <trkpt lat="45.44543" lon="5.67803">
        <ele>755</ele>
        <time>2025-04-12T11:10:07Z</time>
      </trkpt>
      <trkpt lat="45.44533" lon="5.67787">
        <ele>752</ele>
        <time>2025-04-12T11:10:18Z</time>
      </trkpt>
      <trkpt lat="45.44527" lon="5.6778">
        <ele>750</ele>
        <time>2025-04-12T11:10:24Z</time>
      </trkpt>
      <trkpt lat="45.4452" lon="5.67774">
        <ele>748</ele>
        <time>2025-04-12T11:10:29Z</time>
      </trkpt>
      <trkpt lat="45.44489" lon="5.67723">
        <ele>747</ele>
        <time>2025-04-12T11:11:06Z</time>
      </trkpt>
      <trkpt lat="45.44483" lon="5.67716">
        <ele>742</ele>
        <time>2025-04-12T11:11:15Z</time>
      </trkpt>
      <trkpt lat="45.44471" lon="5.67701">
        <ele>739</ele>
        <time>2025-04-12T11:11:25Z</time>
      </trkpt>
      <trkpt lat="45.44455" lon="5.67671">
        <ele>740</ele>
        <time>2025-04-12T11:11:38Z</time>
      </trkpt>
      <trkpt lat="45.44448" lon="5.67663">
        <ele>742</ele>
        <time>2025-04-12T11:11:42Z</time>
      </trkpt>
      <trkpt lat="45.44441" lon="5.67655">
        <ele>744</ele>
        <time>2025-04-12T11:11:46Z</time>
      </trkpt>
      <trkpt lat="45.44407" lon="5.67622">
        <ele>746</ele>
        <time>2025-04-12T11:12:11Z</time>
      </trkpt>
      <trkpt lat="45.44392" lon="5.67614">
        <ele>740</ele>
        <time>2025-04-12T11:12:24Z</time>
      </trkpt>
      <trkpt lat="45.44369" lon="5.67583">
        <ele>742</ele>
        <time>2025-04-12T11:12:42Z</time>
      </trkpt>
      <trkpt lat="45.4436" lon="5.67566">
        <ele>743</ele>
        <time>2025-04-12T11:12:50Z</time>
      </trkpt>
      <trkpt lat="45.44357" lon="5.67556">
        <ele>742</ele>
        <time>2025-04-12T11:12:56Z</time>
      </trkpt>
      <trkpt lat="45.44359" lon="5.67545">
        <ele>738</ele>
        <time>2025-04-12T11:13:03Z</time>
      </trkpt>
      <trkpt lat="45.44364" lon="5.67536">
        <ele>735</ele>
        <time>2025-04-12T11:13:10Z</time>
      </trkpt>
      <trkpt lat="45.44368" lon="5.67528">
        <ele>732</ele>
        <time>2025-04-12T11:13:16Z</time>
      </trkpt>
      <trkpt lat="45.44371" lon="5.67517">
        <ele>731</ele>
        <time>2025-04-12T11:13:22Z</time>
      </trkpt>
      <trkpt lat="45.44381" lon="5.67498">
        <ele>727</ele>
        <time>2025-04-12T11:13:34Z</time>
      </trkpt>
      <trkpt lat="45.44389" lon="5.67478">
        <ele>725</ele>
        <time>2025-04-12T11:13:45Z</time>
      </trkpt>
      <trkpt lat="45.44396" lon="5.67459">
        <ele>722</ele>
        <time>2025-04-12T11:14:00Z</time>
      </trkpt>
      <trkpt lat="45.44393" lon="5.6745">
        <ele>723</ele>
        <time>2025-04-12T11:14:11Z</time>
      </trkpt>
      <trkpt lat="45.44387" lon="5.67441">
        <ele>724</ele>
        <time>2025-04-12T11:14:16Z</time>
      </trkpt>
      <trkpt lat="45.44381" lon="5.67435">
        <ele>725</ele>
        <time>2025-04-12T11:14:21Z</time>
      </trkpt>
      <trkpt lat="45.44366" lon="5.67426">
        <ele>728</ele>
        <time>2025-04-12T11:14:34Z</time>
      </trkpt>
      <trkpt lat="45.44359" lon="5.67424">
        <ele>728</ele>
        <time>2025-04-12T11:14:40Z</time>
      </trkpt>
      <trkpt lat="45.44352" lon="5.67417">
        <ele>729</ele>
        <time>2025-04-12T11:14:45Z</time>
      </trkpt>
      <trkpt lat="45.44336" lon="5.67413">
        <ele>731</ele>
        <time>2025-04-12T11:14:57Z</time>
      </trkpt>
      <trkpt lat="45.44304" lon="5.67415">
        <ele>732</ele>
        <time>2025-04-12T11:15:32Z</time>
      </trkpt>
      <trkpt lat="45.44274" lon="5.67406">
        <ele>732</ele>
        <time>2025-04-12T11:15:56Z</time>
      </trkpt>
      <trkpt lat="45.44267" lon="5.67404">
        <ele>734</ele>
        <time>2025-04-12T11:16:02Z</time>
      </trkpt>
      <trkpt lat="45.44246" lon="5.67391">
        <ele>735</ele>
        <time>2025-04-12T11:16:17Z</time>
      </trkpt>
      <trkpt lat="45.44209" lon="5.67369">
        <ele>738</ele>
        <time>2025-04-12T11:16:48Z</time>
      </trkpt>
      <trkpt lat="45.44178" lon="5.67354">
        <ele>739</ele>
        <time>2025-04-12T11:17:36Z</time>
      </trkpt>
      <trkpt lat="45.4414" lon="5.67348">
        <ele>742</ele>
        <time>2025-04-12T11:18:06Z</time>
      </trkpt>
      <trkpt lat="45.44116" lon="5.67349">
        <ele>745</ele>
        <time>2025-04-12T11:18:23Z</time>
      </trkpt>
      <trkpt lat="45.44092" lon="5.67347">
        <ele>749</ele>
        <time>2025-04-12T11:18:41Z</time>
      </trkpt>
      <trkpt lat="45.44085" lon="5.67344">
        <ele>750</ele>
        <time>2025-04-12T11:18:46Z</time>
      </trkpt>
      <trkpt lat="45.44077" lon="5.67342">
        <ele>750</ele>
        <time>2025-04-12T11:18:53Z</time>
      </trkpt>
      <trkpt lat="45.44036" lon="5.67333">
        <ele>754</ele>
        <time>2025-04-12T11:19:24Z</time>
      </trkpt>
      <trkpt lat="45.44013" lon="5.67332">
        <ele>757</ele>
        <time>2025-04-12T11:19:42Z</time>
      </trkpt>
      <trkpt lat="45.43988" lon="5.67333">
        <ele>755</ele>
        <time>2025-04-12T11:20:01Z</time>
      </trkpt>
      <trkpt lat="45.43948" lon="5.67328">
        <ele>754</ele>
        <time>2025-04-12T11:20:51Z</time>
      </trkpt>
      <trkpt lat="45.43924" lon="5.67324">
        <ele>756</ele>
        <time>2025-04-12T11:21:11Z</time>
      </trkpt>
      <trkpt lat="45.43909" lon="5.67314">
        <ele>757</ele>
        <time>2025-04-12T11:21:23Z</time>
      </trkpt>
      <trkpt lat="45.43869" lon="5.67284">
        <ele>759</ele>
        <time>2025-04-12T11:21:56Z</time>
      </trkpt>
      <trkpt lat="45.43855" lon="5.67276">
        <ele>759</ele>
        <time>2025-04-12T11:22:09Z</time>
      </trkpt>
      <trkpt lat="45.4384" lon="5.67274">
        <ele>760</ele>
        <time>2025-04-12T11:22:21Z</time>
      </trkpt>
      <trkpt lat="45.43835" lon="5.67282">
        <ele>762</ele>
        <time>2025-04-12T11:22:27Z</time>
      </trkpt>
      <trkpt lat="45.43836" lon="5.67292">
        <ele>761</ele>
        <time>2025-04-12T11:22:38Z</time>
      </trkpt>
      <trkpt lat="45.43832" lon="5.67335">
        <ele>765</ele>
        <time>2025-04-12T11:23:05Z</time>
      </trkpt>
      <trkpt lat="45.43828" lon="5.67344">
        <ele>766</ele>
        <time>2025-04-12T11:23:11Z</time>
      </trkpt>
      <trkpt lat="45.43826" lon="5.67365">
        <ele>764</ele>
        <time>2025-04-12T11:23:26Z</time>
      </trkpt>
      <trkpt lat="45.43827" lon="5.67375">
        <ele>766</ele>
        <time>2025-04-12T11:23:32Z</time>
      </trkpt>
      <trkpt lat="45.43826" lon="5.67386">
        <ele>769</ele>
        <time>2025-04-12T11:23:39Z</time>
      </trkpt>
      <trkpt lat="45.43824" lon="5.67396">
        <ele>771</ele>
        <time>2025-04-12T11:23:46Z</time>
      </trkpt>
      <trkpt lat="45.43817" lon="5.67402">
        <ele>775</ele>
        <time>2025-04-12T11:23:53Z</time>
      </trkpt>
      <trkpt lat="45.43809" lon="5.67401">
        <ele>780</ele>
        <time>2025-04-12T11:24:00Z</time>
      </trkpt>
      <trkpt lat="45.43801" lon="5.67402">
        <ele>783</ele>
        <time>2025-04-12T11:24:07Z</time>
      </trkpt>
      <trkpt lat="45.43793" lon="5.67404">
        <ele>786</ele>
        <time>2025-04-12T11:24:14Z</time>
      </trkpt>
      <trkpt lat="45.43786" lon="5.67406">
        <ele>788</ele>
        <time>2025-04-12T11:24:20Z</time>
      </trkpt>
      <trkpt lat="45.43779" lon="5.67406">
        <ele>790</ele>
        <time>2025-04-12T11:24:27Z</time>
      </trkpt>
      <trkpt lat="45.43772" lon="5.6741">
        <ele>791</ele>
        <time>2025-04-12T11:24:35Z</time>
      </trkpt>
      <trkpt lat="45.43748" lon="5.67404">
        <ele>794</ele>
        <time>2025-04-12T11:24:55Z</time>
      </trkpt>
      <trkpt lat="45.43739" lon="5.67389">
        <ele>793</ele>
        <time>2025-04-12T11:25:16Z</time>
      </trkpt>
      <trkpt lat="45.43723" lon="5.67363">
        <ele>787</ele>
        <time>2025-04-12T11:25:36Z</time>
      </trkpt>
      <trkpt lat="45.43715" lon="5.67344">
        <ele>790</ele>
        <time>2025-04-12T11:25:49Z</time>
      </trkpt>
      <trkpt lat="45.43709" lon="5.67335">
        <ele>791</ele>
        <time>2025-04-12T11:25:54Z</time>
      </trkpt>
      <trkpt lat="45.43705" lon="5.67326">
        <ele>793</ele>
        <time>2025-04-12T11:26:00Z</time>
      </trkpt>
      <trkpt lat="45.43699" lon="5.67317">
        <ele>796</ele>
        <time>2025-04-12T11:26:06Z</time>
      </trkpt>
      <trkpt lat="45.43694" lon="5.67309">
        <ele>800</ele>
        <time>2025-04-12T11:26:13Z</time>
      </trkpt>
      <trkpt lat="45.43688" lon="5.67302">
        <ele>802</ele>
        <time>2025-04-12T11:26:20Z</time>
      </trkpt>
      <trkpt lat="45.43682" lon="5.67295">
        <ele>804</ele>
        <time>2025-04-12T11:26:26Z</time>
      </trkpt>
      <trkpt lat="45.43674" lon="5.67293">
        <ele>805</ele>
        <time>2025-04-12T11:26:31Z</time>
      </trkpt>
      <trkpt lat="45.43666" lon="5.67291">
        <ele>807</ele>
        <time>2025-04-12T11:26:37Z</time>
      </trkpt>
      <trkpt lat="45.43658" lon="5.67288">
        <ele>811</ele>
        <time>2025-04-12T11:26:44Z</time>
      </trkpt>
      <trkpt lat="45.43651" lon="5.67285">
        <ele>814</ele>
        <time>2025-04-12T11:26:49Z</time>
      </trkpt>
      <trkpt lat="45.43636" lon="5.67287">
        <ele>819</ele>
        <time>2025-04-12T11:27:03Z</time>
      </trkpt>
      <trkpt lat="45.43621" lon="5.67296">
        <ele>821</ele>
        <time>2025-04-12T11:27:16Z</time>
      </trkpt>
      <trkpt lat="45.43616" lon="5.67304">
        <ele>822</ele>
        <time>2025-04-12T11:27:30Z</time>
      </trkpt>
      <trkpt lat="45.4361" lon="5.67311">
        <ele>822</ele>
        <time>2025-04-12T11:27:36Z</time>
      </trkpt>
      <trkpt lat="45.43607" lon="5.6732">
        <ele>825</ele>
        <time>2025-04-12T11:27:41Z</time>
      </trkpt>
      <trkpt lat="45.43602" lon="5.67327">
        <ele>828</ele>
        <time>2025-04-12T11:27:48Z</time>
      </trkpt>
      <trkpt lat="45.43597" lon="5.67335">
        <ele>832</ele>
        <time>2025-04-12T11:27:54Z</time>
      </trkpt>
      <trkpt lat="45.43591" lon="5.67344">
        <ele>835</ele>
        <time>2025-04-12T11:28:14Z</time>
      </trkpt>
      <trkpt lat="45.43591" lon="5.67354">
        <ele>834</ele>
        <time>2025-04-12T11:28:19Z</time>
      </trkpt>
      <trkpt lat="45.43592" lon="5.67366">
        <ele>832</ele>
        <time>2025-04-12T11:28:24Z</time>
      </trkpt>
      <trkpt lat="45.43597" lon="5.67397">
        <ele>828</ele>
        <time>2025-04-12T11:28:42Z</time>
      </trkpt>
      <trkpt lat="45.43596" lon="5.67407">
        <ele>829</ele>
        <time>2025-04-12T11:28:48Z</time>
      </trkpt>
      <trkpt lat="45.43589" lon="5.67414">
        <ele>831</ele>
        <time>2025-04-12T11:28:57Z</time>
      </trkpt>
      <trkpt lat="45.43578" lon="5.67444">
        <ele>835</ele>
        <time>2025-04-12T11:29:17Z</time>
      </trkpt>
      <trkpt lat="45.43572" lon="5.67452">
        <ele>837</ele>
        <time>2025-04-12T11:29:24Z</time>
      </trkpt>
      <trkpt lat="45.43567" lon="5.6746">
        <ele>841</ele>
        <time>2025-04-12T11:29:31Z</time>
      </trkpt>
      <trkpt lat="45.43562" lon="5.67468">
        <ele>843</ele>
        <time>2025-04-12T11:29:44Z</time>
      </trkpt>
      <trkpt lat="45.43554" lon="5.67475">
        <ele>846</ele>
        <time>2025-04-12T11:29:52Z</time>
      </trkpt>
      <trkpt lat="45.4354" lon="5.67482">
        <ele>848</ele>
        <time>2025-04-12T11:30:28Z</time>
      </trkpt>
      <trkpt lat="45.43533" lon="5.67482">
        <ele>851</ele>
        <time>2025-04-12T11:30:35Z</time>
      </trkpt>
      <trkpt lat="45.43525" lon="5.67482">
        <ele>854</ele>
        <time>2025-04-12T11:30:42Z</time>
      </trkpt>
      <trkpt lat="45.43518" lon="5.67476">
        <ele>854</ele>
        <time>2025-04-12T11:30:58Z</time>
      </trkpt>
      <trkpt lat="45.43511" lon="5.6747">
        <ele>856</ele>
        <time>2025-04-12T11:31:06Z</time>
      </trkpt>
      <trkpt lat="45.43503" lon="5.67467">
        <ele>857</ele>
        <time>2025-04-12T11:31:11Z</time>
      </trkpt>
      <trkpt lat="45.43506" lon="5.67478">
        <ele>852</ele>
        <time>2025-04-12T11:31:23Z</time>
      </trkpt>
      <trkpt lat="45.43499" lon="5.67478">
        <ele>856</ele>
        <time>2025-04-12T11:31:40Z</time>
      </trkpt>
      <trkpt lat="45.43493" lon="5.67484">
        <ele>858</ele>
        <time>2025-04-12T11:31:45Z</time>
      </trkpt>
      <trkpt lat="45.43493" lon="5.67497">
        <ele>857</ele>
        <time>2025-04-12T11:31:50Z</time>
      </trkpt>
      <trkpt lat="45.43497" lon="5.67518">
        <ele>858</ele>
        <time>2025-04-12T11:32:04Z</time>
      </trkpt>
      <trkpt lat="45.43498" lon="5.67528">
        <ele>862</ele>
        <time>2025-04-12T11:32:11Z</time>
      </trkpt>
      <trkpt lat="45.43503" lon="5.67537">
        <ele>862</ele>
        <time>2025-04-12T11:32:17Z</time>
      </trkpt>
      <trkpt lat="45.43509" lon="5.67545">
        <ele>864</ele>
        <time>2025-04-12T11:32:23Z</time>
      </trkpt>
      <trkpt lat="45.43532" lon="5.67601">
        <ele>867</ele>
        <time>2025-04-12T11:33:03Z</time>
      </trkpt>
      <trkpt lat="45.43539" lon="5.67599">
        <ele>869</ele>
        <time>2025-04-12T11:33:38Z</time>
      </trkpt>
      <trkpt lat="45.4353" lon="5.67582">
        <ele>859</ele>
        <time>2025-04-12T11:33:54Z</time>
      </trkpt>
      <trkpt lat="45.43528" lon="5.67572">
        <ele>860</ele>
        <time>2025-04-12T11:34:00Z</time>
      </trkpt>
      <trkpt lat="45.4351" lon="5.67547">
        <ele>859</ele>
        <time>2025-04-12T11:34:15Z</time>
      </trkpt>
      <trkpt lat="45.43506" lon="5.67539">
        <ele>857</ele>
        <time>2025-04-12T11:34:21Z</time>
      </trkpt>
      <trkpt lat="45.43505" lon="5.67528">
        <ele>857</ele>
        <time>2025-04-12T11:34:28Z</time>
      </trkpt>
      <trkpt lat="45.43494" lon="5.67498">
        <ele>857</ele>
        <time>2025-04-12T11:34:47Z</time>
      </trkpt>
      <trkpt lat="45.43492" lon="5.67487">
        <ele>853</ele>
        <time>2025-04-12T11:34:53Z</time>
      </trkpt>
      <trkpt lat="45.43484" lon="5.67481">
        <ele>854</ele>
        <time>2025-04-12T11:34:59Z</time>
      </trkpt>
      <trkpt lat="45.43488" lon="5.67473">
        <ele>855</ele>
        <time>2025-04-12T11:35:07Z</time>
      </trkpt>
      <trkpt lat="45.43485" lon="5.67463">
        <ele>855</ele>
        <time>2025-04-12T11:35:15Z</time>
      </trkpt>
      <trkpt lat="45.43478" lon="5.67456">
        <ele>854</ele>
        <time>2025-04-12T11:35:19Z</time>
      </trkpt>
      <trkpt lat="45.43459" lon="5.67423">
        <ele>852</ele>
        <time>2025-04-12T11:35:44Z</time>
      </trkpt>
      <trkpt lat="45.43456" lon="5.67412">
        <ele>850</ele>
        <time>2025-04-12T11:35:54Z</time>
      </trkpt>
      <trkpt lat="45.43449" lon="5.67407">
        <ele>850</ele>
        <time>2025-04-12T11:35:59Z</time>
      </trkpt>
      <trkpt lat="45.43433" lon="5.67383">
        <ele>850</ele>
        <time>2025-04-12T11:36:16Z</time>
      </trkpt>
      <trkpt lat="45.4343" lon="5.67372">
        <ele>850</ele>
        <time>2025-04-12T11:36:23Z</time>
      </trkpt>
      <trkpt lat="45.43419" lon="5.67356">
        <ele>849</ele>
        <time>2025-04-12T11:36:36Z</time>
      </trkpt>
      <trkpt lat="45.43411" lon="5.6735">
        <ele>850</ele>
        <time>2025-04-12T11:36:42Z</time>
      </trkpt>
      <trkpt lat="45.43397" lon="5.67345">
        <ele>850</ele>
        <time>2025-04-12T11:36:53Z</time>
      </trkpt>
      <trkpt lat="45.43381" lon="5.67344">
        <ele>853</ele>
        <time>2025-04-12T11:37:05Z</time>
      </trkpt>
      <trkpt lat="45.43374" lon="5.6735">
        <ele>854</ele>
        <time>2025-04-12T11:37:14Z</time>
      </trkpt>
      <trkpt lat="45.43365" lon="5.67367">
        <ele>854</ele>
        <time>2025-04-12T11:37:25Z</time>
      </trkpt>
      <trkpt lat="45.43362" lon="5.67377">
        <ele>856</ele>
        <time>2025-04-12T11:37:31Z</time>
      </trkpt>
      <trkpt lat="45.43358" lon="5.67387">
        <ele>859</ele>
        <time>2025-04-12T11:37:37Z</time>
      </trkpt>
      <trkpt lat="45.43353" lon="5.67409">
        <ele>861</ele>
        <time>2025-04-12T11:37:51Z</time>
      </trkpt>
      <trkpt lat="45.43361" lon="5.67439">
        <ele>858</ele>
        <time>2025-04-12T11:38:09Z</time>
      </trkpt>
      <trkpt lat="45.43365" lon="5.67448">
        <ele>859</ele>
        <time>2025-04-12T11:38:14Z</time>
      </trkpt>
      <trkpt lat="45.43371" lon="5.67455">
        <ele>862</ele>
        <time>2025-04-12T11:38:20Z</time>
      </trkpt>
      <trkpt lat="45.43383" lon="5.67471">
        <ele>865</ele>
        <time>2025-04-12T11:38:34Z</time>
      </trkpt>
      <trkpt lat="45.43389" lon="5.67478">
        <ele>868</ele>
        <time>2025-04-12T11:38:40Z</time>
      </trkpt>
      <trkpt lat="45.43393" lon="5.67487">
        <ele>868</ele>
        <time>2025-04-12T11:38:49Z</time>
      </trkpt>
      <trkpt lat="45.43402" lon="5.67518">
        <ele>873</ele>
        <time>2025-04-12T11:39:09Z</time>
      </trkpt>
      <trkpt lat="45.43414" lon="5.67546">
        <ele>873</ele>
        <time>2025-04-12T11:39:27Z</time>
      </trkpt>
      <trkpt lat="45.43418" lon="5.67555">
        <ele>877</ele>
        <time>2025-04-12T11:39:36Z</time>
      </trkpt>
      <trkpt lat="45.43421" lon="5.67565">
        <ele>882</ele>
        <time>2025-04-12T11:39:45Z</time>
      </trkpt>
      <trkpt lat="45.43425" lon="5.67574">
        <ele>882</ele>
        <time>2025-04-12T11:39:55Z</time>
      </trkpt>
      <trkpt lat="45.43429" lon="5.67584">
        <ele>884</ele>
        <time>2025-04-12T11:40:03Z</time>
      </trkpt>
      <trkpt lat="45.43432" lon="5.67594">
        <ele>889</ele>
        <time>2025-04-12T11:40:13Z</time>
      </trkpt>
      <trkpt lat="45.43435" lon="5.67605">
        <ele>886</ele>
        <time>2025-04-12T11:40:19Z</time>
      </trkpt>
      <trkpt lat="45.43441" lon="5.67614">
        <ele>886</ele>
        <time>2025-04-12T11:40:23Z</time>
      </trkpt>
      <trkpt lat="45.43447" lon="5.67623">
        <ele>884</ele>
        <time>2025-04-12T11:41:05Z</time>
      </trkpt>
      <trkpt lat="45.43472" lon="5.67665">
        <ele>886</ele>
        <time>2025-04-12T11:41:33Z</time>
      </trkpt>
      <trkpt lat="45.43478" lon="5.67672">
        <ele>885</ele>
        <time>2025-04-12T11:41:41Z</time>
      </trkpt>
      <trkpt lat="45.43483" lon="5.67681">
        <ele>884</ele>
        <time>2025-04-12T11:41:51Z</time>
      </trkpt>
      <trkpt lat="45.43484" lon="5.67691">
        <ele>883</ele>
        <time>2025-04-12T11:41:57Z</time>
      </trkpt>
      <trkpt lat="45.43493" lon="5.6771">
        <ele>884</ele>
        <time>2025-04-12T11:42:11Z</time>
      </trkpt>
      <trkpt lat="45.43497" lon="5.6772">
        <ele>888</ele>
        <time>2025-04-12T11:42:18Z</time>
      </trkpt>
      <trkpt lat="45.43498" lon="5.67731">
        <ele>890</ele>
        <time>2025-04-12T11:42:24Z</time>
      </trkpt>
      <trkpt lat="45.43502" lon="5.67741">
        <ele>893</ele>
        <time>2025-04-12T11:42:30Z</time>
      </trkpt>
      <trkpt lat="45.43517" lon="5.67792">
        <ele>902</ele>
        <time>2025-04-12T11:43:01Z</time>
      </trkpt>
      <trkpt lat="45.43521" lon="5.67802">
        <ele>904</ele>
        <time>2025-04-12T11:43:06Z</time>
      </trkpt>
      <trkpt lat="45.43526" lon="5.6781">
        <ele>906</ele>
        <time>2025-04-12T11:43:10Z</time>
      </trkpt>
      <trkpt lat="45.43528" lon="5.6782">
        <ele>910</ele>
        <time>2025-04-12T11:43:19Z</time>
      </trkpt>
      <trkpt lat="45.43536" lon="5.67839">
        <ele>911</ele>
        <time>2025-04-12T11:43:30Z</time>
      </trkpt>
      <trkpt lat="45.43538" lon="5.67849">
        <ele>910</ele>
        <time>2025-04-12T11:43:38Z</time>
      </trkpt>
      <trkpt lat="45.43536" lon="5.6787">
        <ele>911</ele>
        <time>2025-04-12T11:43:52Z</time>
      </trkpt>
      <trkpt lat="45.43531" lon="5.67862">
        <ele>914</ele>
        <time>2025-04-12T11:44:16Z</time>
      </trkpt>
      <trkpt lat="45.43519" lon="5.67845">
        <ele>918</ele>
        <time>2025-04-12T11:44:37Z</time>
      </trkpt>
      <trkpt lat="45.43492" lon="5.67821">
        <ele>918</ele>
        <time>2025-04-12T11:45:07Z</time>
      </trkpt>
      <trkpt lat="45.43486" lon="5.67815">
        <ele>918</ele>
        <time>2025-04-12T11:45:12Z</time>
      </trkpt>
      <trkpt lat="45.43473" lon="5.67804">
        <ele>920</ele>
        <time>2025-04-12T11:45:24Z</time>
      </trkpt>
      <trkpt lat="45.43467" lon="5.67797">
        <ele>922</ele>
        <time>2025-04-12T11:45:29Z</time>
      </trkpt>
      <trkpt lat="45.4346" lon="5.67791">
        <ele>924</ele>
        <time>2025-04-12T11:45:34Z</time>
      </trkpt>
      <trkpt lat="45.43452" lon="5.67785">
        <ele>926</ele>
        <time>2025-04-12T11:45:44Z</time>
      </trkpt>
      <trkpt lat="45.43446" lon="5.6778">
        <ele>929</ele>
        <time>2025-04-12T11:45:51Z</time>
      </trkpt>
      <trkpt lat="45.43438" lon="5.6778">
        <ele>929</ele>
        <time>2025-04-12T11:45:56Z</time>
      </trkpt>
      <trkpt lat="45.43422" lon="5.67784">
        <ele>920</ele>
        <time>2025-04-12T11:46:09Z</time>
      </trkpt>
      <trkpt lat="45.43399" lon="5.67784">
        <ele>920</ele>
        <time>2025-04-12T11:46:25Z</time>
      </trkpt>
      <trkpt lat="45.43392" lon="5.67787">
        <ele>920</ele>
        <time>2025-04-12T11:46:31Z</time>
      </trkpt>
      <trkpt lat="45.43385" lon="5.67787">
        <ele>922</ele>
        <time>2025-04-12T11:46:36Z</time>
      </trkpt>
      <trkpt lat="45.43369" lon="5.67782">
        <ele>930</ele>
        <time>2025-04-12T11:46:51Z</time>
      </trkpt>
      <trkpt lat="45.43361" lon="5.6778">
        <ele>932</ele>
        <time>2025-04-12T11:46:58Z</time>
      </trkpt>
      <trkpt lat="45.43353" lon="5.67777">
        <ele>934</ele>
        <time>2025-04-12T11:47:04Z</time>
      </trkpt>
      <trkpt lat="45.43322" lon="5.67784">
        <ele>934</ele>
        <time>2025-04-12T11:47:27Z</time>
      </trkpt>
      <trkpt lat="45.43309" lon="5.67796">
        <ele>931</ele>
        <time>2025-04-12T11:47:47Z</time>
      </trkpt>
      <trkpt lat="45.43304" lon="5.67804">
        <ele>930</ele>
        <time>2025-04-12T11:47:53Z</time>
      </trkpt>
      <trkpt lat="45.43297" lon="5.67804">
        <ele>931</ele>
        <time>2025-04-12T11:48:01Z</time>
      </trkpt>
      <trkpt lat="45.43268" lon="5.67789">
        <ele>932</ele>
        <time>2025-04-12T11:48:32Z</time>
      </trkpt>
      <trkpt lat="45.43247" lon="5.67776">
        <ele>934</ele>
        <time>2025-04-12T11:48:49Z</time>
      </trkpt>
      <trkpt lat="45.43239" lon="5.67774">
        <ele>934</ele>
        <time>2025-04-12T11:48:56Z</time>
      </trkpt>
      <trkpt lat="45.43232" lon="5.6777">
        <ele>932</ele>
        <time>2025-04-12T11:49:04Z</time>
      </trkpt>
      <trkpt lat="45.43217" lon="5.67761">
        <ele>929</ele>
        <time>2025-04-12T11:49:15Z</time>
      </trkpt>
      <trkpt lat="45.4321" lon="5.67758">
        <ele>928</ele>
        <time>2025-04-12T11:49:22Z</time>
      </trkpt>
      <trkpt lat="45.43203" lon="5.67751">
        <ele>926</ele>
        <time>2025-04-12T11:49:29Z</time>
      </trkpt>
      <trkpt lat="45.43194" lon="5.67733">
        <ele>925</ele>
        <time>2025-04-12T11:49:38Z</time>
      </trkpt>
      <trkpt lat="45.43192" lon="5.67711">
        <ele>926</ele>
        <time>2025-04-12T11:49:49Z</time>
      </trkpt>
      <trkpt lat="45.43187" lon="5.6769">
        <ele>926</ele>
        <time>2025-04-12T11:50:02Z</time>
      </trkpt>
      <trkpt lat="45.43187" lon="5.67678">
        <ele>928</ele>
        <time>2025-04-12T11:50:09Z</time>
      </trkpt>
      <trkpt lat="45.43182" lon="5.67668">
        <ele>930</ele>
        <time>2025-04-12T11:50:14Z</time>
      </trkpt>
      <trkpt lat="45.43171" lon="5.67653">
        <ele>929</ele>
        <time>2025-04-12T11:50:24Z</time>
      </trkpt>
      <trkpt lat="45.43166" lon="5.67645">
        <ele>927</ele>
        <time>2025-04-12T11:50:29Z</time>
      </trkpt>
      <trkpt lat="45.43156" lon="5.67626">
        <ele>925</ele>
        <time>2025-04-12T11:50:41Z</time>
      </trkpt>
      <trkpt lat="45.43148" lon="5.67595">
        <ele>925</ele>
        <time>2025-04-12T11:50:59Z</time>
      </trkpt>
      <trkpt lat="45.43143" lon="5.67586">
        <ele>923</ele>
        <time>2025-04-12T11:51:04Z</time>
      </trkpt>
      <trkpt lat="45.4314" lon="5.67576">
        <ele>924</ele>
        <time>2025-04-12T11:51:10Z</time>
      </trkpt>
      <trkpt lat="45.43139" lon="5.67565">
        <ele>924</ele>
        <time>2025-04-12T11:51:16Z</time>
      </trkpt>
      <trkpt lat="45.43138" lon="5.67555">
        <ele>922</ele>
        <time>2025-04-12T11:51:22Z</time>
      </trkpt>
      <trkpt lat="45.43138" lon="5.67532">
        <ele>920</ele>
        <time>2025-04-12T11:51:34Z</time>
      </trkpt>
      <trkpt lat="45.43128" lon="5.67489">
        <ele>918</ele>
        <time>2025-04-12T11:51:58Z</time>
      </trkpt>
      <trkpt lat="45.43129" lon="5.67478">
        <ele>920</ele>
        <time>2025-04-12T11:52:04Z</time>
      </trkpt>
      <trkpt lat="45.43129" lon="5.67456">
        <ele>923</ele>
        <time>2025-04-12T11:52:15Z</time>
      </trkpt>
      <trkpt lat="45.43129" lon="5.67443">
        <ele>925</ele>
        <time>2025-04-12T11:52:21Z</time>
      </trkpt>
      <trkpt lat="45.43127" lon="5.67433">
        <ele>923</ele>
        <time>2025-04-12T11:52:26Z</time>
      </trkpt>
      <trkpt lat="45.43121" lon="5.67411">
        <ele>919</ele>
        <time>2025-04-12T11:52:38Z</time>
      </trkpt>
      <trkpt lat="45.43116" lon="5.67403">
        <ele>919</ele>
        <time>2025-04-12T11:52:43Z</time>
      </trkpt>
      <trkpt lat="45.4311" lon="5.67383">
        <ele>919</ele>
        <time>2025-04-12T11:52:54Z</time>
      </trkpt>
      <trkpt lat="45.43106" lon="5.67373">
        <ele>917</ele>
        <time>2025-04-12T11:52:59Z</time>
      </trkpt>
      <trkpt lat="45.43102" lon="5.6735">
        <ele>916</ele>
        <time>2025-04-12T11:53:11Z</time>
      </trkpt>
      <trkpt lat="45.43086" lon="5.67312">
        <ele>917</ele>
        <time>2025-04-12T11:53:35Z</time>
      </trkpt>
      <trkpt lat="45.43081" lon="5.67303">
        <ele>919</ele>
        <time>2025-04-12T11:53:41Z</time>
      </trkpt>
      <trkpt lat="45.43079" lon="5.67291">
        <ele>918</ele>
        <time>2025-04-12T11:53:48Z</time>
      </trkpt>
      <trkpt lat="45.43077" lon="5.67281">
        <ele>919</ele>
        <time>2025-04-12T11:53:54Z</time>
      </trkpt>
      <trkpt lat="45.43071" lon="5.67271">
        <ele>916</ele>
        <time>2025-04-12T11:54:00Z</time>
      </trkpt>
      <trkpt lat="45.43069" lon="5.6726">
        <ele>916</ele>
        <time>2025-04-12T11:54:05Z</time>
      </trkpt>
      <trkpt lat="45.4305" lon="5.67237">
        <ele>918</ele>
        <time>2025-04-12T11:54:21Z</time>
      </trkpt>
      <trkpt lat="45.43046" lon="5.67228">
        <ele>920</ele>
        <time>2025-04-12T11:54:27Z</time>
      </trkpt>
      <trkpt lat="45.43046" lon="5.67217">
        <ele>918</ele>
        <time>2025-04-12T11:54:38Z</time>
      </trkpt>
      <trkpt lat="45.43048" lon="5.67194">
        <ele>916</ele>
        <time>2025-04-12T11:54:50Z</time>
      </trkpt>
      <trkpt lat="45.43042" lon="5.67175">
        <ele>919</ele>
        <time>2025-04-12T11:55:00Z</time>
      </trkpt>
      <trkpt lat="45.43038" lon="5.67166">
        <ele>919</ele>
        <time>2025-04-12T11:55:05Z</time>
      </trkpt>
      <trkpt lat="45.4303" lon="5.6716">
        <ele>919</ele>
        <time>2025-04-12T11:55:10Z</time>
      </trkpt>
      <trkpt lat="45.43015" lon="5.67136">
        <ele>918</ele>
        <time>2025-04-12T11:55:27Z</time>
      </trkpt>
      <trkpt lat="45.43008" lon="5.67129">
        <ele>921</ele>
        <time>2025-04-12T11:55:32Z</time>
      </trkpt>
      <trkpt lat="45.43004" lon="5.6712">
        <ele>923</ele>
        <time>2025-04-12T11:55:39Z</time>
      </trkpt>
      <trkpt lat="45.42997" lon="5.67114">
        <ele>923</ele>
        <time>2025-04-12T11:55:45Z</time>
      </trkpt>
      <trkpt lat="45.4299" lon="5.67109">
        <ele>921</ele>
        <time>2025-04-12T11:55:51Z</time>
      </trkpt>
      <trkpt lat="45.42984" lon="5.67104">
        <ele>919</ele>
        <time>2025-04-12T11:55:56Z</time>
      </trkpt>
      <trkpt lat="45.42954" lon="5.67068">
        <ele>911</ele>
        <time>2025-04-12T11:56:19Z</time>
      </trkpt>
      <trkpt lat="45.42952" lon="5.67058">
        <ele>910</ele>
        <time>2025-04-12T11:56:25Z</time>
      </trkpt>
      <trkpt lat="45.42925" lon="5.67002">
        <ele>911</ele>
        <time>2025-04-12T11:56:58Z</time>
      </trkpt>
      <trkpt lat="45.42913" lon="5.66988">
        <ele>909</ele>
        <time>2025-04-12T11:57:10Z</time>
      </trkpt>
      <trkpt lat="45.42903" lon="5.66969">
        <ele>907</ele>
        <time>2025-04-12T11:57:21Z</time>
      </trkpt>
      <trkpt lat="45.42898" lon="5.66961">
        <ele>905</ele>
        <time>2025-04-12T11:57:26Z</time>
      </trkpt>
      <trkpt lat="45.42895" lon="5.66951">
        <ele>906</ele>
        <time>2025-04-12T11:57:32Z</time>
      </trkpt>
      <trkpt lat="45.42894" lon="5.66941">
        <ele>909</ele>
        <time>2025-04-12T11:57:40Z</time>
      </trkpt>
      <trkpt lat="45.4289" lon="5.66919">
        <ele>911</ele>
        <time>2025-04-12T11:57:54Z</time>
      </trkpt>
      <trkpt lat="45.42881" lon="5.66888">
        <ele>912</ele>
        <time>2025-04-12T11:58:12Z</time>
      </trkpt>
      <trkpt lat="45.42877" lon="5.66879">
        <ele>915</ele>
        <time>2025-04-12T11:58:17Z</time>
      </trkpt>
      <trkpt lat="45.42873" lon="5.66871">
        <ele>917</ele>
        <time>2025-04-12T11:58:22Z</time>
      </trkpt>
      <trkpt lat="45.42869" lon="5.66862">
        <ele>921</ele>
        <time>2025-04-12T11:58:27Z</time>
      </trkpt>
      <trkpt lat="45.42863" lon="5.66854">
        <ele>925</ele>
        <time>2025-04-12T11:58:33Z</time>
      </trkpt>
      <trkpt lat="45.42858" lon="5.66846">
        <ele>927</ele>
        <time>2025-04-12T11:58:39Z</time>
      </trkpt>
      <trkpt lat="45.42857" lon="5.66835">
        <ele>929</ele>
        <time>2025-04-12T11:58:45Z</time>
      </trkpt>
      <trkpt lat="45.42853" lon="5.66825">
        <ele>928</ele>
        <time>2025-04-12T11:58:51Z</time>
      </trkpt>
      <trkpt lat="45.42842" lon="5.66811">
        <ele>926</ele>
        <time>2025-04-12T11:59:01Z</time>
      </trkpt>
      <trkpt lat="45.42824" lon="5.66761">
        <ele>927</ele>
        <time>2025-04-12T11:59:30Z</time>
      </trkpt>
      <trkpt lat="45.4282" lon="5.66752">
        <ele>930</ele>
        <time>2025-04-12T11:59:36Z</time>
      </trkpt>
      <trkpt lat="45.42819" lon="5.66741">
        <ele>931</ele>
        <time>2025-04-12T11:59:42Z</time>
      </trkpt>
      <trkpt lat="45.42815" lon="5.6673">
        <ele>932</ele>
        <time>2025-04-12T11:59:48Z</time>
      </trkpt>
      <trkpt lat="45.42813" lon="5.6672">
        <ele>935</ele>
        <time>2025-04-12T11:59:54Z</time>
      </trkpt>
      <trkpt lat="45.42796" lon="5.66669">
        <ele>930</ele>
        <time>2025-04-12T12:00:24Z</time>
      </trkpt>
      <trkpt lat="45.42789" lon="5.66661">
        <ele>928</ele>
        <time>2025-04-12T12:00:33Z</time>
      </trkpt>
      <trkpt lat="45.42782" lon="5.66655">
        <ele>927</ele>
        <time>2025-04-12T12:00:38Z</time>
      </trkpt>
      <trkpt lat="45.42774" lon="5.66655">
        <ele>926</ele>
        <time>2025-04-12T12:00:43Z</time>
      </trkpt>
      <trkpt lat="45.42767" lon="5.66651">
        <ele>925</ele>
        <time>2025-04-12T12:00:48Z</time>
      </trkpt>
      <trkpt lat="45.4276" lon="5.66644">
        <ele>926</ele>
        <time>2025-04-12T12:00:54Z</time>
      </trkpt>
      <trkpt lat="45.42731" lon="5.66592">
        <ele>925</ele>
        <time>2025-04-12T12:01:28Z</time>
      </trkpt>
      <trkpt lat="45.42728" lon="5.66582">
        <ele>924</ele>
        <time>2025-04-12T12:02:10Z</time>
      </trkpt>
      <trkpt lat="45.42723" lon="5.66562">
        <ele>925</ele>
        <time>2025-04-12T12:02:24Z</time>
      </trkpt>
      <trkpt lat="45.42723" lon="5.6655">
        <ele>925</ele>
        <time>2025-04-12T12:02:31Z</time>
      </trkpt>
      <trkpt lat="45.42722" lon="5.66528">
        <ele>929</ele>
        <time>2025-04-12T12:02:44Z</time>
      </trkpt>
      <trkpt lat="45.42717" lon="5.66507">
        <ele>932</ele>
        <time>2025-04-12T12:02:56Z</time>
      </trkpt>
      <trkpt lat="45.4271" lon="5.66487">
        <ele>935</ele>
        <time>2025-04-12T12:03:11Z</time>
      </trkpt>
      <trkpt lat="45.42695" lon="5.66461">
        <ele>936</ele>
        <time>2025-04-12T12:03:27Z</time>
      </trkpt>
      <trkpt lat="45.42682" lon="5.6645">
        <ele>934</ele>
        <time>2025-04-12T12:03:37Z</time>
      </trkpt>
      <trkpt lat="45.42676" lon="5.66443">
        <ele>936</ele>
        <time>2025-04-12T12:03:43Z</time>
      </trkpt>
      <trkpt lat="45.42672" lon="5.66433">
        <ele>937</ele>
        <time>2025-04-12T12:03:49Z</time>
      </trkpt>
      <trkpt lat="45.42665" lon="5.66426">
        <ele>937</ele>
        <time>2025-04-12T12:03:54Z</time>
      </trkpt>
      <trkpt lat="45.42661" lon="5.66417">
        <ele>937</ele>
        <time>2025-04-12T12:04:00Z</time>
      </trkpt>
      <trkpt lat="45.42651" lon="5.66399">
        <ele>934</ele>
        <time>2025-04-12T12:04:13Z</time>
      </trkpt>
      <trkpt lat="45.42645" lon="5.66392">
        <ele>934</ele>
        <time>2025-04-12T12:04:18Z</time>
      </trkpt>
      <trkpt lat="45.4264" lon="5.66384">
        <ele>935</ele>
        <time>2025-04-12T12:04:25Z</time>
      </trkpt>
      <trkpt lat="45.42633" lon="5.66378">
        <ele>931</ele>
        <time>2025-04-12T12:04:55Z</time>
      </trkpt>
      <trkpt lat="45.42628" lon="5.66369">
        <ele>930</ele>
        <time>2025-04-12T12:05:02Z</time>
      </trkpt>
      <trkpt lat="45.42622" lon="5.66362">
        <ele>930</ele>
        <time>2025-04-12T12:05:09Z</time>
      </trkpt>
      <trkpt lat="45.42612" lon="5.66346">
        <ele>924</ele>
        <time>2025-04-12T12:05:20Z</time>
      </trkpt>
      <trkpt lat="45.42598" lon="5.66333">
        <ele>925</ele>
        <time>2025-04-12T12:05:36Z</time>
      </trkpt>
      <trkpt lat="45.42595" lon="5.66323">
        <ele>926</ele>
        <time>2025-04-12T12:05:44Z</time>
      </trkpt>
      <trkpt lat="45.42589" lon="5.66316">
        <ele>927</ele>
        <time>2025-04-12T12:05:51Z</time>
      </trkpt>
      <trkpt lat="45.42585" lon="5.66306">
        <ele>929</ele>
        <time>2025-04-12T12:05:59Z</time>
      </trkpt>
      <trkpt lat="45.4258" lon="5.66297">
        <ele>934</ele>
        <time>2025-04-12T12:06:25Z</time>
      </trkpt>
      <trkpt lat="45.42578" lon="5.66286">
        <ele>934</ele>
        <time>2025-04-12T12:06:33Z</time>
      </trkpt>
      <trkpt lat="45.42572" lon="5.66278">
        <ele>935</ele>
        <time>2025-04-12T12:06:40Z</time>
      </trkpt>
      <trkpt lat="45.4257" lon="5.66257">
        <ele>936</ele>
        <time>2025-04-12T12:06:53Z</time>
      </trkpt>
      <trkpt lat="45.42577" lon="5.66238">
        <ele>937</ele>
        <time>2025-04-12T12:07:07Z</time>
      </trkpt>
      <trkpt lat="45.42578" lon="5.66227">
        <ele>941</ele>
        <time>2025-04-12T12:07:13Z</time>
      </trkpt>
      <trkpt lat="45.42583" lon="5.66217">
        <ele>944</ele>
        <time>2025-04-12T12:07:20Z</time>
      </trkpt>
      <trkpt lat="45.42589" lon="5.66212">
        <ele>949</ele>
        <time>2025-04-12T12:07:27Z</time>
      </trkpt>
      <trkpt lat="45.42595" lon="5.66204">
        <ele>950</ele>
        <time>2025-04-12T12:07:32Z</time>
      </trkpt>
      <trkpt lat="45.42604" lon="5.66186">
        <ele>949</ele>
        <time>2025-04-12T12:08:33Z</time>
      </trkpt>
      <trkpt lat="45.42611" lon="5.66181">
        <ele>950</ele>
        <time>2025-04-12T12:08:41Z</time>
      </trkpt>
      <trkpt lat="45.42617" lon="5.66174">
        <ele>953</ele>
        <time>2025-04-12T12:08:48Z</time>
      </trkpt>
      <trkpt lat="45.42626" lon="5.66143">
        <ele>952</ele>
        <time>2025-04-12T12:09:03Z</time>
      </trkpt>
      <trkpt lat="45.42633" lon="5.6611">
        <ele>947</ele>
        <time>2025-04-12T12:09:20Z</time>
      </trkpt>
      <trkpt lat="45.42635" lon="5.66099">
        <ele>950</ele>
        <time>2025-04-12T12:09:26Z</time>
      </trkpt>
      <trkpt lat="45.42637" lon="5.66088">
        <ele>954</ele>
        <time>2025-04-12T12:09:32Z</time>
      </trkpt>
      <trkpt lat="45.42632" lon="5.66079">
        <ele>953</ele>
        <time>2025-04-12T12:09:37Z</time>
      </trkpt>
      <trkpt lat="45.42628" lon="5.66069">
        <ele>954</ele>
        <time>2025-04-12T12:09:43Z</time>
      </trkpt>
      <trkpt lat="45.42611" lon="5.66047">
        <ele>953</ele>
        <time>2025-04-12T12:10:00Z</time>
      </trkpt>
      <trkpt lat="45.42603" lon="5.66043">
        <ele>952</ele>
        <time>2025-04-12T12:10:05Z</time>
      </trkpt>
      <trkpt lat="45.42598" lon="5.66033">
        <ele>953</ele>
        <time>2025-04-12T12:10:14Z</time>
      </trkpt>
      <trkpt lat="45.42591" lon="5.66025">
        <ele>953</ele>
        <time>2025-04-12T12:10:20Z</time>
      </trkpt>
      <trkpt lat="45.42585" lon="5.6602">
        <ele>950</ele>
        <time>2025-04-12T12:10:25Z</time>
      </trkpt>
      <trkpt lat="45.42562" lon="5.65988">
        <ele>952</ele>
        <time>2025-04-12T12:10:48Z</time>
      </trkpt>
      <trkpt lat="45.42554" lon="5.65989">
        <ele>951</ele>
        <time>2025-04-12T12:10:53Z</time>
      </trkpt>
      <trkpt lat="45.42547" lon="5.65992">
        <ele>951</ele>
        <time>2025-04-12T12:10:58Z</time>
      </trkpt>
      <trkpt lat="45.42542" lon="5.65984">
        <ele>954</ele>
        <time>2025-04-12T12:11:10Z</time>
      </trkpt>
      <trkpt lat="45.42538" lon="5.65975">
        <ele>957</ele>
        <time>2025-04-12T12:11:18Z</time>
      </trkpt>
      <trkpt lat="45.42537" lon="5.65965">
        <ele>959</ele>
        <time>2025-04-12T12:11:32Z</time>
      </trkpt>
      <trkpt lat="45.42532" lon="5.65955">
        <ele>957</ele>
        <time>2025-04-12T12:11:38Z</time>
      </trkpt>
      <trkpt lat="45.42529" lon="5.65946">
        <ele>955</ele>
        <time>2025-04-12T12:11:44Z</time>
      </trkpt>
      <trkpt lat="45.42528" lon="5.65934">
        <ele>952</ele>
        <time>2025-04-12T12:11:50Z</time>
      </trkpt>
      <trkpt lat="45.42517" lon="5.65918">
        <ele>949</ele>
        <time>2025-04-12T12:12:01Z</time>
      </trkpt>
      <trkpt lat="45.42514" lon="5.65908">
        <ele>946</ele>
        <time>2025-04-12T12:12:08Z</time>
      </trkpt>
      <trkpt lat="45.42514" lon="5.65897">
        <ele>943</ele>
        <time>2025-04-12T12:12:15Z</time>
      </trkpt>
      <trkpt lat="45.42513" lon="5.65886">
        <ele>941</ele>
        <time>2025-04-12T12:12:21Z</time>
      </trkpt>
      <trkpt lat="45.42515" lon="5.65875">
        <ele>940</ele>
        <time>2025-04-12T12:12:28Z</time>
      </trkpt>
      <trkpt lat="45.42509" lon="5.65855">
        <ele>935</ele>
        <time>2025-04-12T12:12:41Z</time>
      </trkpt>
      <trkpt lat="45.42504" lon="5.65847">
        <ele>934</ele>
        <time>2025-04-12T12:12:46Z</time>
      </trkpt>
      <trkpt lat="45.42503" lon="5.65825">
        <ele>934</ele>
        <time>2025-04-12T12:13:00Z</time>
      </trkpt>
      <trkpt lat="45.425" lon="5.65814">
        <ele>933</ele>
        <time>2025-04-12T12:13:06Z</time>
      </trkpt>
      <trkpt lat="45.42496" lon="5.65805">
        <ele>931</ele>
        <time>2025-04-12T12:13:12Z</time>
      </trkpt>
      <trkpt lat="45.42496" lon="5.65794">
        <ele>929</ele>
        <time>2025-04-12T12:13:18Z</time>
      </trkpt>
      <trkpt lat="45.42493" lon="5.65784">
        <ele>927</ele>
        <time>2025-04-12T12:13:23Z</time>
      </trkpt>
      <trkpt lat="45.42493" lon="5.65772">
        <ele>922</ele>
        <time>2025-04-12T12:13:30Z</time>
      </trkpt>
      <trkpt lat="45.42492" lon="5.65761">
        <ele>920</ele>
        <time>2025-04-12T12:13:35Z</time>
      </trkpt>
      <trkpt lat="45.42493" lon="5.65751">
        <ele>917</ele>
        <time>2025-04-12T12:13:40Z</time>
      </trkpt>
      <trkpt lat="45.4249" lon="5.65741">
        <ele>910</ele>
        <time>2025-04-12T12:14:10Z</time>
      </trkpt>
      <trkpt lat="45.42487" lon="5.6573">
        <ele>909</ele>
        <time>2025-04-12T12:14:17Z</time>
      </trkpt>
      <trkpt lat="45.42482" lon="5.6572">
        <ele>903</ele>
        <time>2025-04-12T12:14:25Z</time>
      </trkpt>
      <trkpt lat="45.42482" lon="5.65709">
        <ele>899</ele>
        <time>2025-04-12T12:14:31Z</time>
      </trkpt>
      <trkpt lat="45.4248" lon="5.65699">
        <ele>897</ele>
        <time>2025-04-12T12:14:37Z</time>
      </trkpt>
      <trkpt lat="45.42473" lon="5.6568">
        <ele>896</ele>
        <time>2025-04-12T12:14:50Z</time>
      </trkpt>
      <trkpt lat="45.42458" lon="5.65653">
        <ele>894</ele>
        <time>2025-04-12T12:15:06Z</time>
      </trkpt>
      <trkpt lat="45.42454" lon="5.65644">
        <ele>891</ele>
        <time>2025-04-12T12:15:13Z</time>
      </trkpt>
      <trkpt lat="45.42451" lon="5.65633">
        <ele>891</ele>
        <time>2025-04-12T12:15:18Z</time>
      </trkpt>
      <trkpt lat="45.42452" lon="5.65622">
        <ele>893</ele>
        <time>2025-04-12T12:15:23Z</time>
      </trkpt>
      <trkpt lat="45.42449" lon="5.65611">
        <ele>893</ele>
        <time>2025-04-12T12:15:28Z</time>
      </trkpt>
      <trkpt lat="45.42448" lon="5.656">
        <ele>897</ele>
        <time>2025-04-12T12:15:34Z</time>
      </trkpt>
      <trkpt lat="45.42441" lon="5.65578">
        <ele>902</ele>
        <time>2025-04-12T12:15:48Z</time>
      </trkpt>
      <trkpt lat="45.42434" lon="5.65558">
        <ele>905</ele>
        <time>2025-04-12T12:16:01Z</time>
      </trkpt>
      <trkpt lat="45.42419" lon="5.65532">
        <ele>904</ele>
        <time>2025-04-12T12:16:17Z</time>
      </trkpt>
      <trkpt lat="45.42409" lon="5.65515">
        <ele>902</ele>
        <time>2025-04-12T12:16:27Z</time>
      </trkpt>
      <trkpt lat="45.42402" lon="5.65507">
        <ele>900</ele>
        <time>2025-04-12T12:16:32Z</time>
      </trkpt>
      <trkpt lat="45.42394" lon="5.65486">
        <ele>901</ele>
        <time>2025-04-12T12:16:44Z</time>
      </trkpt>
      <trkpt lat="45.4239" lon="5.65477">
        <ele>903</ele>
        <time>2025-04-12T12:16:51Z</time>
      </trkpt>
      <trkpt lat="45.42379" lon="5.65461">
        <ele>903</ele>
        <time>2025-04-12T12:17:03Z</time>
      </trkpt>
      <trkpt lat="45.42377" lon="5.65449">
        <ele>903</ele>
        <time>2025-04-12T12:17:09Z</time>
      </trkpt>
      <trkpt lat="45.42371" lon="5.6544">
        <ele>903</ele>
        <time>2025-04-12T12:17:15Z</time>
      </trkpt>
      <trkpt lat="45.42364" lon="5.65435">
        <ele>903</ele>
        <time>2025-04-12T12:17:19Z</time>
      </trkpt>
      <trkpt lat="45.42358" lon="5.65428">
        <ele>900</ele>
        <time>2025-04-12T12:17:24Z</time>
      </trkpt>
      <trkpt lat="45.42353" lon="5.65419">
        <ele>899</ele>
        <time>2025-04-12T12:17:30Z</time>
      </trkpt>
      <trkpt lat="45.42349" lon="5.65409">
        <ele>897</ele>
        <time>2025-04-12T12:17:36Z</time>
      </trkpt>
      <trkpt lat="45.42348" lon="5.65387">
        <ele>896</ele>
        <time>2025-04-12T12:17:47Z</time>
      </trkpt>
      <trkpt lat="45.42342" lon="5.65377">
        <ele>896</ele>
        <time>2025-04-12T12:17:53Z</time>
      </trkpt>
      <trkpt lat="45.42325" lon="5.6537">
        <ele>895</ele>
        <time>2025-04-12T12:18:00Z</time>
      </trkpt>
      <trkpt lat="45.42301" lon="5.6537">
        <ele>893</ele>
        <time>2025-04-12T12:18:23Z</time>
      </trkpt>
      <trkpt lat="45.42285" lon="5.65365">
        <ele>894</ele>
        <time>2025-04-12T12:18:38Z</time>
      </trkpt>
      <trkpt lat="45.42253" lon="5.65374">
        <ele>894</ele>
        <time>2025-04-12T12:19:06Z</time>
      </trkpt>
      <trkpt lat="45.42221" lon="5.65381">
        <ele>895</ele>
        <time>2025-04-12T12:19:35Z</time>
      </trkpt>
      <trkpt lat="45.4222" lon="5.65371">
        <ele>895</ele>
        <time>2025-04-12T12:19:50Z</time>
      </trkpt>
      <trkpt lat="45.42215" lon="5.65363">
        <ele>890</ele>
        <time>2025-04-12T12:20:10Z</time>
      </trkpt>
      <trkpt lat="45.4222" lon="5.65291">
        <ele>888</ele>
        <time>2025-04-12T12:20:25Z</time>
      </trkpt>
      <trkpt lat="45.42215" lon="5.65245">
        <ele>887</ele>
        <time>2025-04-12T12:20:29Z</time>
      </trkpt>
      <trkpt lat="45.4221" lon="5.65233">
        <ele>887</ele>
        <time>2025-04-12T12:20:31Z</time>
      </trkpt>
      <trkpt lat="45.42218" lon="5.65214">
        <ele>887</ele>
        <time>2025-04-12T12:20:48Z</time>
      </trkpt>
      <trkpt lat="45.42218" lon="5.65203">
        <ele>889</ele>
        <time>2025-04-12T12:21:00Z</time>
      </trkpt>
      <trkpt lat="45.42213" lon="5.65183">
        <ele>891</ele>
        <time>2025-04-12T12:21:12Z</time>
      </trkpt>
      <trkpt lat="45.42205" lon="5.65162">
        <ele>896</ele>
        <time>2025-04-12T12:21:30Z</time>
      </trkpt>
      <trkpt lat="45.4218" lon="5.65137">
        <ele>902</ele>
        <time>2025-04-12T12:21:53Z</time>
      </trkpt>
      <trkpt lat="45.42176" lon="5.65127">
        <ele>902</ele>
        <time>2025-04-12T12:21:58Z</time>
      </trkpt>
      <trkpt lat="45.42175" lon="5.65116">
        <ele>902</ele>
        <time>2025-04-12T12:22:04Z</time>
      </trkpt>
      <trkpt lat="45.42176" lon="5.65094">
        <ele>906</ele>
        <time>2025-04-12T12:22:16Z</time>
      </trkpt>
      <trkpt lat="45.42178" lon="5.65084">
        <ele>906</ele>
        <time>2025-04-12T12:22:22Z</time>
      </trkpt>
      <trkpt lat="45.42182" lon="5.65076">
        <ele>906</ele>
        <time>2025-04-12T12:22:27Z</time>
      </trkpt>
      <trkpt lat="45.42188" lon="5.65044">
        <ele>912</ele>
        <time>2025-04-12T12:22:46Z</time>
      </trkpt>
      <trkpt lat="45.42194" lon="5.65022">
        <ele>913</ele>
        <time>2025-04-12T12:22:56Z</time>
      </trkpt>
      <trkpt lat="45.42198" lon="5.65013">
        <ele>916</ele>
        <time>2025-04-12T12:23:01Z</time>
      </trkpt>
      <trkpt lat="45.42193" lon="5.65002">
        <ele>916</ele>
        <time>2025-04-12T12:23:17Z</time>
      </trkpt>
      <trkpt lat="45.42191" lon="5.64992">
        <ele>916</ele>
        <time>2025-04-12T12:23:23Z</time>
      </trkpt>
      <trkpt lat="45.42187" lon="5.64981">
        <ele>916</ele>
        <time>2025-04-12T12:23:30Z</time>
      </trkpt>
      <trkpt lat="45.42188" lon="5.64958">
        <ele>915</ele>
        <time>2025-04-12T12:23:43Z</time>
      </trkpt>
      <trkpt lat="45.42192" lon="5.64949">
        <ele>915</ele>
        <time>2025-04-12T12:23:51Z</time>
      </trkpt>
      <trkpt lat="45.42194" lon="5.64939">
        <ele>916</ele>
        <time>2025-04-12T12:23:57Z</time>
      </trkpt>
      <trkpt lat="45.42188" lon="5.64914">
        <ele>914</ele>
        <time>2025-04-12T12:24:11Z</time>
      </trkpt>
      <trkpt lat="45.42186" lon="5.64904">
        <ele>912</ele>
        <time>2025-04-12T12:24:17Z</time>
      </trkpt>
      <trkpt lat="45.42191" lon="5.64868">
        <ele>911</ele>
        <time>2025-04-12T12:24:33Z</time>
      </trkpt>
      <trkpt lat="45.42192" lon="5.64857">
        <ele>909</ele>
        <time>2025-04-12T12:24:38Z</time>
      </trkpt>
      <trkpt lat="45.42189" lon="5.64845">
        <ele>907</ele>
        <time>2025-04-12T12:24:43Z</time>
      </trkpt>
      <trkpt lat="45.42188" lon="5.64823">
        <ele>902</ele>
        <time>2025-04-12T12:24:56Z</time>
      </trkpt>
      <trkpt lat="45.42184" lon="5.648">
        <ele>899</ele>
        <time>2025-04-12T12:25:09Z</time>
      </trkpt>
      <trkpt lat="45.42186" lon="5.6479">
        <ele>898</ele>
        <time>2025-04-12T12:25:14Z</time>
      </trkpt>
      <trkpt lat="45.42188" lon="5.6478">
        <ele>899</ele>
        <time>2025-04-12T12:25:19Z</time>
      </trkpt>
      <trkpt lat="45.42191" lon="5.64768">
        <ele>901</ele>
        <time>2025-04-12T12:25:24Z</time>
      </trkpt>
      <trkpt lat="45.42194" lon="5.64758">
        <ele>904</ele>
        <time>2025-04-12T12:25:28Z</time>
      </trkpt>
      <trkpt lat="45.42204" lon="5.64739">
        <ele>905</ele>
        <time>2025-04-12T12:25:38Z</time>
      </trkpt>
      <trkpt lat="45.42217" lon="5.64722">
        <ele>903</ele>
        <time>2025-04-12T12:25:49Z</time>
      </trkpt>
      <trkpt lat="45.42216" lon="5.64711">
        <ele>903</ele>
        <time>2025-04-12T12:25:54Z</time>
      </trkpt>
      <trkpt lat="45.42213" lon="5.647">
        <ele>901</ele>
        <time>2025-04-12T12:26:00Z</time>
      </trkpt>
      <trkpt lat="45.42213" lon="5.64688">
        <ele>900</ele>
        <time>2025-04-12T12:26:06Z</time>
      </trkpt>
      <trkpt lat="45.42219" lon="5.64667">
        <ele>898</ele>
        <time>2025-04-12T12:26:15Z</time>
      </trkpt>
      <trkpt lat="45.42223" lon="5.64658">
        <ele>896</ele>
        <time>2025-04-12T12:26:19Z</time>
      </trkpt>
      <trkpt lat="45.42226" lon="5.64636">
        <ele>891</ele>
        <time>2025-04-12T12:26:31Z</time>
      </trkpt>
      <trkpt lat="45.42232" lon="5.64615">
        <ele>891</ele>
        <time>2025-04-12T12:26:41Z</time>
      </trkpt>
      <trkpt lat="45.42236" lon="5.64604">
        <ele>889</ele>
        <time>2025-04-12T12:26:47Z</time>
      </trkpt>
      <trkpt lat="45.42238" lon="5.64594">
        <ele>887</ele>
        <time>2025-04-12T12:26:52Z</time>
      </trkpt>
      <trkpt lat="45.42239" lon="5.64584">
        <ele>884</ele>
        <time>2025-04-12T12:26:57Z</time>
      </trkpt>
      <trkpt lat="45.42243" lon="5.64574">
        <ele>881</ele>
        <time>2025-04-12T12:27:03Z</time>
      </trkpt>
      <trkpt lat="45.42245" lon="5.64562">
        <ele>879</ele>
        <time>2025-04-12T12:27:08Z</time>
      </trkpt>
      <trkpt lat="45.42247" lon="5.64552">
        <ele>877</ele>
        <time>2025-04-12T12:27:13Z</time>
      </trkpt>
      <trkpt lat="45.42252" lon="5.64542">
        <ele>877</ele>
        <time>2025-04-12T12:27:18Z</time>
      </trkpt>
      <trkpt lat="45.4226" lon="5.64523">
        <ele>875</ele>
        <time>2025-04-12T12:27:28Z</time>
      </trkpt>
      <trkpt lat="45.4227" lon="5.64504">
        <ele>876</ele>
        <time>2025-04-12T12:27:37Z</time>
      </trkpt>
      <trkpt lat="45.42271" lon="5.64494">
        <ele>877</ele>
        <time>2025-04-12T12:27:42Z</time>
      </trkpt>
      <trkpt lat="45.42279" lon="5.64474">
        <ele>874</ele>
        <time>2025-04-12T12:27:55Z</time>
      </trkpt>
      <trkpt lat="45.42284" lon="5.6445">
        <ele>873</ele>
        <time>2025-04-12T12:28:08Z</time>
      </trkpt>
      <trkpt lat="45.42288" lon="5.64441">
        <ele>874</ele>
        <time>2025-04-12T12:28:13Z</time>
      </trkpt>
      <trkpt lat="45.42321" lon="5.64393">
        <ele>878</ele>
        <time>2025-04-12T12:28:44Z</time>
      </trkpt>
      <trkpt lat="45.42355" lon="5.64347">
        <ele>879</ele>
        <time>2025-04-12T12:29:14Z</time>
      </trkpt>
      <trkpt lat="45.4236" lon="5.64338">
        <ele>873</ele>
        <time>2025-04-12T12:29:52Z</time>
      </trkpt>
      <trkpt lat="45.42369" lon="5.64322">
        <ele>873</ele>
        <time>2025-04-12T12:30:03Z</time>
      </trkpt>
      <trkpt lat="45.42378" lon="5.64305">
        <ele>869</ele>
        <time>2025-04-12T12:30:13Z</time>
      </trkpt>
      <trkpt lat="45.42382" lon="5.64285">
        <ele>866</ele>
        <time>2025-04-12T12:30:25Z</time>
      </trkpt>
      <trkpt lat="45.42384" lon="5.64273">
        <ele>862</ele>
        <time>2025-04-12T12:30:31Z</time>
      </trkpt>
      <trkpt lat="45.42384" lon="5.64239">
        <ele>860</ele>
        <time>2025-04-12T12:30:48Z</time>
      </trkpt>
      <trkpt lat="45.42382" lon="5.64227">
        <ele>859</ele>
        <time>2025-04-12T12:30:58Z</time>
      </trkpt>
      <trkpt lat="45.42378" lon="5.64216">
        <ele>857</ele>
        <time>2025-04-12T12:31:07Z</time>
      </trkpt>
      <trkpt lat="45.42373" lon="5.64195">
        <ele>854</ele>
        <time>2025-04-12T12:31:19Z</time>
      </trkpt>
      <trkpt lat="45.42366" lon="5.64175">
        <ele>853</ele>
        <time>2025-04-12T12:31:31Z</time>
      </trkpt>
      <trkpt lat="45.42362" lon="5.64165">
        <ele>849</ele>
        <time>2025-04-12T12:31:38Z</time>
      </trkpt>
      <trkpt lat="45.4236" lon="5.64154">
        <ele>846</ele>
        <time>2025-04-12T12:31:44Z</time>
      </trkpt>
      <trkpt lat="45.42359" lon="5.64143">
        <ele>842</ele>
        <time>2025-04-12T12:31:48Z</time>
      </trkpt>
      <trkpt lat="45.42358" lon="5.64132">
        <ele>840</ele>
        <time>2025-04-12T12:31:53Z</time>
      </trkpt>
      <trkpt lat="45.42358" lon="5.6412">
        <ele>841</ele>
        <time>2025-04-12T12:31:58Z</time>
      </trkpt>
      <trkpt lat="45.42355" lon="5.64098">
        <ele>842</ele>
        <time>2025-04-12T12:32:10Z</time>
      </trkpt>
      <trkpt lat="45.4235" lon="5.6404">
        <ele>844</ele>
        <time>2025-04-12T12:32:40Z</time>
      </trkpt>
      <trkpt lat="45.42341" lon="5.63988">
        <ele>845</ele>
        <time>2025-04-12T12:33:07Z</time>
      </trkpt>
      <trkpt lat="45.42334" lon="5.63983">
        <ele>845</ele>
        <time>2025-04-12T12:33:13Z</time>
      </trkpt>
    </trkseg>
  </trk>
</gpx>